Observation data for Fort Lancaster on 03/25/2019      Previous  Date  Next       Current Mesonet Observations  Soil Data  Daily Summary Page  Observations in Plain Language
KLA1 250500Z 12006KT 19/16 A3009 RMK A01 T01850162  RH  087%=      5-min Rain = 0
KLA1 250501Z 12006KT 19/16 A3009 RMK A01 T01850162  RH  087%=      5-min Rain = 0
KLA1 250502Z 12005KT 19/16 A3009 RMK A01 T01850163  RH  087%=      5-min Rain = 0
KLA1 250503Z 12005KT 19/16 A3009 RMK A01 T01850163  RH  087%=      5-min Rain = 0
KLA1 250504Z 11005KT 19/16 A3009 RMK A01 T01850163  RH  087%=      5-min Rain = 0
KLA1 250505Z 12005KT 18/16 A3009 RMK A01 T01840162  RH  087%=      5-min Rain = 0
KLA1 250506Z 12005KT 18/16 A3009 RMK A01 T01840163  RH  087%=      5-min Rain = 0
KLA1 250507Z 12005KT 18/16 A3009 RMK A01 T01840163  RH  088%=      5-min Rain = 0
KLA1 250508Z 12005KT 18/16 A3009 RMK A01 T01840163  RH  088%=      5-min Rain = 0
KLA1 250509Z 12006KT 18/16 A3009 RMK A01 T01830163  RH  088%=      5-min Rain = 0
KLA1 250510Z 12006KT 18/16 A3009 RMK A01 T01830164  RH  088%=      5-min Rain = 0
KLA1 250511Z 12005KT 18/16 A3009 RMK A01 T01830164  RH  088%=      5-min Rain = 0
KLA1 250512Z 12005KT 18/16 A3009 RMK A01 T01830163  RH  088%=      5-min Rain = 0
KLA1 250513Z 13005KT 18/16 A3009 RMK A01 T01830163  RH  088%=      5-min Rain = 0
KLA1 250514Z 13004KT 18/16 A3009 RMK A01 T01820164  RH  089%=      5-min Rain = 0
KLA1 250515Z 13004KT 18/16 A3009 RMK A01 T01820163  RH  089%=      5-min Rain = 0
KLA1 250516Z 12005KT 18/16 A3009 RMK A01 T01820164  RH  089%=      5-min Rain = 0
KLA1 250517Z 12005KT 18/16 A3009 RMK A01 T01810163  RH  089%=      5-min Rain = 0
KLA1 250518Z 12005KT 18/16 A3009 RMK A01 T01810164  RH  090%=      5-min Rain = 0
KLA1 250519Z 12006KT 18/16 A3009 RMK A01 T01810164  RH  090%=      5-min Rain = 0
KLA1 250520Z 12005KT 18/16 A3009 RMK A01 T01800164  RH  090%=      5-min Rain = 0
KLA1 250521Z 12005KT 18/16 A3009 RMK A01 T01800164  RH  091%=      5-min Rain = 0
KLA1 250522Z 11005KT 18/17 A3009 RMK A01 T01800165  RH  091%=      5-min Rain = 0
KLA1 250523Z 11005KT 18/17 A3009 RMK A01 T01800165  RH  091%=      5-min Rain = 0
KLA1 250524Z 11005KT 18/17 A3009 RMK A01 T01800165  RH  091%=      5-min Rain = 0
KLA1 250525Z 11005KT 18/17 A3009 RMK A01 T01800165  RH  091%=      5-min Rain = 0
KLA1 250526Z 10004KT 18/17 A301 RMK A01 T01790165  RH  091%=      5-min Rain = 0
KLA1 250527Z 11005KT 18/17 A301 RMK A01 T01800166  RH  092%=      5-min Rain = 0
KLA1 250528Z 11005KT 18/17 A301 RMK A01 T01800166  RH  092%=      5-min Rain = 0
KLA1 250529Z 11005KT 18/17 A301 RMK A01 T01800166  RH  092%=      5-min Rain = 0
KLA1 250530Z 11004KT 18/17 A301 RMK A01 T01800166  RH  091%=      5-min Rain = 0
KLA1 250531Z 11005KT 18/17 A301 RMK A01 T01800166  RH  091%=      5-min Rain = 0
KLA1 250532Z 11005KT 18/17 A301 RMK A01 T01800167  RH  092%=      5-min Rain = 0
KLA1 250533Z 11004KT 18/17 A301 RMK A01 T01800167  RH  092%=      5-min Rain = 0
KLA1 250534Z 12004KT 18/17 A3009 RMK A01 T01800166  RH  092%=      5-min Rain = 0
KLA1 250535Z 12004KT 18/17 A3009 RMK A01 T01800166  RH  092%=      5-min Rain = 0
KLA1 250536Z 12004KT 18/17 A3009 RMK A01 T01800166  RH  092%=      5-min Rain = 0
KLA1 250537Z 13004KT 18/17 A301 RMK A01 T01790166  RH  092%=      5-min Rain = 0
KLA1 250538Z 13004KT 18/17 A3009 RMK A01 T01790166  RH  092%=      5-min Rain = 0
KLA1 250539Z 13004KT 18/17 A3009 RMK A01 T01780166  RH  093%=      5-min Rain = 0
KLA1 250540Z 13004KT 18/17 A3009 RMK A01 T01780166  RH  093%=      5-min Rain = 0
KLA1 250541Z 13004KT 18/17 A3009 RMK A01 T01770167  RH  093%=      5-min Rain = 0
KLA1 250542Z 13004KT 18/17 A3009 RMK A01 T01770166  RH  093%=      5-min Rain = 0
KLA1 250543Z 13004KT 18/17 A3009 RMK A01 T01760166  RH  094%=      5-min Rain = 0
KLA1 250544Z 13004KT 18/17 A3009 RMK A01 T01760166  RH  094%=      5-min Rain = 0
KLA1 250545Z 12004KT 18/17 A3009 RMK A01 T01760167  RH  094%=      5-min Rain = 0
KLA1 250546Z 12004KT 18/17 A3009 RMK A01 T01750166  RH  095%=      5-min Rain = 0
KLA1 250547Z 12003KT 18/17 A3009 RMK A01 T01750167  RH  095%=      5-min Rain = 0
KLA1 250548Z 12003KT 18/17 A3009 RMK A01 T01750166  RH  095%=      5-min Rain = 0
KLA1 250549Z 12003KT 17/17 A3009 RMK A01 T01740166  RH  095%=      5-min Rain = 0
KLA1 250550Z 11003KT 17/17 A3009 RMK A01 T01740166  RH  095%=      5-min Rain = 0
KLA1 250551Z 11004KT 17/17 A3009 RMK A01 T01730166  RH  096%=      5-min Rain = 0
KLA1 250552Z 11004KT 17/17 A3009 RMK A01 T01730167  RH  096%=      5-min Rain = 0
KLA1 250553Z 11004KT 17/17 A301 RMK A01 T01730168  RH  097%=      5-min Rain = 0
KLA1 250554Z 10003KT 17/17 A301 RMK A01 T01740168  RH  096%=      5-min Rain = 0
KLA1 250555Z 10004KT 17/17 A301 RMK A01 T01740168  RH  096%=      5-min Rain = 0
KLA1 250556Z 10004KT 17/17 A301 RMK A01 T01740167  RH  096%=      5-min Rain = 0
KLA1 250557Z 10003KT 17/17 A301 RMK A01 T01740168  RH  097%=      5-min Rain = 0
KLA1 250558Z 10003KT 17/17 A301 RMK A01 T01740168  RH  096%=      5-min Rain = 0
KLA1 250559Z 10002KT 17/17 A301 RMK A01 T01730168  RH  097%=      5-min Rain = 0
KLA1 250600Z 09001KT 17/17 A301 RMK A01 T01740169  RH  097%=      5-min Rain = 0
KLA1 250601Z 10002KT 17/17 A301 RMK A01 T01740169  RH  097%=      5-min Rain = 0
KLA1 250602Z 10003KT 17/17 A301 RMK A01 T01740169  RH  097%=      5-min Rain = 0
KLA1 250603Z 11003KT 17/17 A301 RMK A01 T01730168  RH  097%=      5-min Rain = 0
KLA1 250604Z 11002KT 17/17 A301 RMK A01 T01730168  RH  097%=      5-min Rain = 0
KLA1 250605Z 12002KT 17/17 A301 RMK A01 T01730167  RH  096%=      5-min Rain = 0
KLA1 250606Z 12002KT 17/17 A301 RMK A01 T01720166  RH  096%=      5-min Rain = 0
KLA1 250607Z 11001KT 17/17 A301 RMK A01 T01720166  RH  096%=      5-min Rain = 0
KLA1 250608Z 11000KT 17/17 A301 RMK A01 T01710166  RH  097%=      5-min Rain = 0
KLA1 250609Z 11000KT 17/17 A301 RMK A01 T01710167  RH  097%=      5-min Rain = 0
KLA1 250610Z 11000KT 17/17 A301 RMK A01 T01720169  RH  098%=      5-min Rain = 0
KLA1 250611Z 11000KT 17/17 A301 RMK A01 T01710169  RH  098%=      5-min Rain = 0
KLA1 250612Z 10001KT 17/17 A301 RMK A01 T01720169  RH  098%=      5-min Rain = 0
KLA1 250613Z 09001KT 17/17 A301 RMK A01 T01720169  RH  098%=      5-min Rain = 0
KLA1 250614Z 06001KT 17/17 A301 RMK A01 T01720168  RH  098%=      5-min Rain = 0
KLA1 250615Z 06001KT 17/17 A301 RMK A01 T01710167  RH  098%=      5-min Rain = 0
KLA1 250616Z 06000KT 17/17 A301 RMK A01 T01710168  RH  098%=      5-min Rain = 0
KLA1 250617Z 06001KT 17/17 A301 RMK A01 T01710167  RH  098%=      5-min Rain = 0
KLA1 250618Z 05001KT 17/17 A301 RMK A01 T01700167  RH  098%=      5-min Rain = 0
KLA1 250619Z 04001KT 17/17 A301 RMK A01 T01700168  RH  099%=      5-min Rain = 0
KLA1 250620Z 03001KT 17/17 A301 RMK A01 T01710168  RH  098%=      5-min Rain = 0
KLA1 250621Z 02001KT 17/17 A301 RMK A01 T01700168  RH  098%=      5-min Rain = 0
KLA1 250622Z 00000KT 17/17 A301 RMK A01 T01700168  RH  098%=      5-min Rain = 0
KLA1 250623Z 02000KT 17/17 A301 RMK A01 T01700168  RH  098%=      5-min Rain = 0
KLA1 250624Z 02000KT 17/17 A301 RMK A01 T01710169  RH  099%=      5-min Rain = 0
KLA1 250625Z 00000KT 17/17 A301 RMK A01 T01710170  RH  099%=      5-min Rain = 0
KLA1 250626Z 00000KT 17/17 A301 RMK A01 T01720171  RH  099%=      5-min Rain = 0
KLA1 250627Z 00000KT 17/17 A301 RMK A01 T01720169  RH  098%=      5-min Rain = 0
KLA1 250628Z 00000KT 17/17 A301 RMK A01 T01720169  RH  098%=      5-min Rain = 0
KLA1 250629Z 30001KT 17/17 A301 RMK A01 T01710166  RH  097%=      5-min Rain = 0
KLA1 250630Z 29001KT 17/17 A301 RMK A01 T01700167  RH  098%=      5-min Rain = 0
KLA1 250631Z 28001KT 17/17 A301 RMK A01 T01700166  RH  098%=      5-min Rain = 0
KLA1 250632Z 27001KT 17/17 A301 RMK A01 T01690165  RH  097%=      5-min Rain = 0
KLA1 250633Z 27002KT 17/16 A301 RMK A01 T01680163  RH  097%=      5-min Rain = 0
KLA1 250634Z 29001KT 17/16 A301 RMK A01 T01670162  RH  097%=      5-min Rain = 0
KLA1 250635Z 29002KT 17/16 A301 RMK A01 T01660163  RH  098%=      5-min Rain = 0
KLA1 250636Z 30002KT 17/16 A301 RMK A01 T01660164  RH  098%=      5-min Rain = 0
KLA1 250637Z 35001KT 17/16 A301 RMK A01 T01650161  RH  097%=      5-min Rain = 0
KLA1 250638Z 01003KT 16/16 A301 RMK A01 T01640160  RH  097%=      5-min Rain = 0
KLA1 250639Z 01004KT 16/16 A301 RMK A01 T01630159  RH  098%=      5-min Rain = 0
KLA1 250640Z 01004KT 16/16 A301 RMK A01 T01620159  RH  098%=      5-min Rain = 0
KLA1 250641Z 01004KT 16/16 A301 RMK A01 T01610159  RH  099%=      5-min Rain = 0
KLA1 250642Z 01004KT 16/16 A301 RMK A01 T01610161  RH  100%=      5-min Rain = 0
KLA1 250643Z 01003KT 16/16 A301 RMK A01 T01610161  RH  100%=      5-min Rain = 0
KLA1 250644Z 00003KT 16/16 A301 RMK A01 T01610161  RH  100%=      5-min Rain = 0
KLA1 250645Z 00003KT 16/16 A301 RMK A01 T01620162  RH  100%=      5-min Rain = 0
KLA1 250646Z 00002KT 16/16 A301 RMK A01 T01630163  RH  100%=      5-min Rain = 0
KLA1 250647Z 00002KT 16/16 A301 RMK A01 T01640164  RH  100%=      5-min Rain = 0
KLA1 250648Z 00001KT 17/17 A301 RMK A01 T01650165  RH  100%=      5-min Rain = 0
KLA1 250649Z 00001KT 16/17 A301 RMK A01 T01640165  RH  100%=      5-min Rain = 0
KLA1 250650Z 00000KT 17/17 A301 RMK A01 T01660166  RH  100%=      5-min Rain = 0
KLA1 250651Z 00000KT 17/17 A301 RMK A01 T01670167  RH  100%=      5-min Rain = 0
KLA1 250652Z 35000KT 17/17 A301 RMK A01 T01670167  RH  100%=      5-min Rain = 0
KLA1 250653Z 32000KT 17/17 A301 RMK A01 T01670167  RH  100%=      5-min Rain = 0
KLA1 250654Z 30000KT 17/17 A301 RMK A01 T01670166  RH  099%=      5-min Rain = 0
KLA1 250655Z 28000KT 16/16 A301 RMK A01 T01640162  RH  099%=      5-min Rain = 0
KLA1 250656Z 26001KT 16/16 A301 RMK A01 T01630161  RH  099%=      5-min Rain = 0
KLA1 250657Z 29002KT 16/16 A301 RMK A01 T01610160  RH  099%=      5-min Rain = 0
KLA1 250658Z 31001KT 16/16 A301 RMK A01 T01600159  RH  099%=      5-min Rain = 0
KLA1 250659Z 31000KT 16/16 A301 RMK A01 T01590157  RH  099%=      5-min Rain = 0
KLA1 250700Z 00000KT 16/16 A301 RMK A01 T01580156  RH  099%=      5-min Rain = 0
KLA1 250701Z 00000KT 16/15 A301 RMK A01 T01550153  RH  098%=      5-min Rain = 0
KLA1 250702Z 00000KT 15/15 A301 RMK A01 T01540152  RH  099%=      5-min Rain = 0
KLA1 250703Z 15000KT 15/15 A301 RMK A01 T01530152  RH  099%=      5-min Rain = 0
KLA1 250704Z 15000KT 15/15 A301 RMK A01 T01520152  RH  100%=      5-min Rain = 0
KLA1 250705Z 00000KT 15/15 A301 RMK A01 T01520152  RH  100%=      5-min Rain = 0
KLA1 250706Z 00000KT 15/15 A301 RMK A01 T01520152  RH  100%=      5-min Rain = 0
KLA1 250707Z 00000KT 15/15 A301 RMK A01 T01520152  RH  100%=      5-min Rain = 0
KLA1 250708Z 00000KT 15/15 A301 RMK A01 T01540154  RH  100%=      5-min Rain = 0
KLA1 250709Z 15000KT 16/16 A301 RMK A01 T01560156  RH  100%=      5-min Rain = 0
KLA1 250710Z 15000KT 16/16 A301 RMK A01 T01580158  RH  100%=      5-min Rain = 0
KLA1 250711Z 00000KT 16/16 A301 RMK A01 T01590159  RH  100%=      5-min Rain = 0
KLA1 250712Z 00000KT 16/16 A301 RMK A01 T01600160  RH  100%=      5-min Rain = 0
KLA1 250713Z 15000KT 16/16 A301 RMK A01 T01590160  RH  100%=      5-min Rain = 0
KLA1 250714Z 01001KT 16/16 A301 RMK A01 T01580158  RH  100%=      5-min Rain = 0
KLA1 250715Z 00001KT 16/16 A301 RMK A01 T01550155  RH  100%=      5-min Rain = 0
KLA1 250716Z 00002KT 15/15 A301 RMK A01 T01520152  RH  100%=      5-min Rain = 0
KLA1 250717Z 01002KT 15/15 A301 RMK A01 T01490149  RH  100%=      5-min Rain = 0
KLA1 250718Z 02002KT 15/15 A301 RMK A01 T01490149  RH  100%=      5-min Rain = 0
KLA1 250719Z 02002KT 15/15 A301 RMK A01 T01490149  RH  100%=      5-min Rain = 0
KLA1 250720Z 02002KT 15/15 A301 RMK A01 T01490149  RH  100%=      5-min Rain = 0
KLA1 250721Z 02002KT 15/15 A301 RMK A01 T01500150  RH  100%=      5-min Rain = 0
KLA1 250722Z 01002KT 15/15 A301 RMK A01 T01530153  RH  100%=      5-min Rain = 0
KLA1 250723Z 01002KT 15/15 A301 RMK A01 T01540154  RH  100%=      5-min Rain = 0
KLA1 250724Z 00001KT 15/15 A301 RMK A01 T01540154  RH  100%=      5-min Rain = 0
KLA1 250725Z 35002KT 15/15 A301 RMK A01 T01540154  RH  100%=      5-min Rain = 0
KLA1 250726Z 32001KT 15/15 A301 RMK A01 T01540154  RH  100%=      5-min Rain = 0
KLA1 250727Z 29001KT 15/15 A301 RMK A01 T01540154  RH  100%=      5-min Rain = 0
KLA1 250728Z 26001KT 16/16 A301 RMK A01 T01550155  RH  100%=      5-min Rain = 0
KLA1 250729Z 25001KT 16/16 A301 RMK A01 T01560156  RH  100%=      5-min Rain = 0
KLA1 250730Z 25001KT 16/16 A301 RMK A01 T01550156  RH  100%=      5-min Rain = 0
KLA1 250731Z 25001KT 16/16 A301 RMK A01 T01550156  RH  100%=      5-min Rain = 0
KLA1 250732Z 25001KT 16/16 A301 RMK A01 T01550155  RH  100%=      5-min Rain = 0
KLA1 250733Z 25001KT 16/16 A301 RMK A01 T01550155  RH  100%=      5-min Rain = 0
KLA1 250734Z 25001KT 15/16 A301 RMK A01 T01540155  RH  100%=      5-min Rain = 0
KLA1 250735Z 00000KT 15/15 A301 RMK A01 T01520152  RH  100%=      5-min Rain = 0
KLA1 250736Z 27001KT 15/15 A301 RMK A01 T01510151  RH  100%=      5-min Rain = 0
KLA1 250737Z 28001KT 15/15 A301 RMK A01 T01490150  RH  100%=      5-min Rain = 0
KLA1 250738Z 29001KT 15/15 A301 RMK A01 T01490149  RH  100%=      5-min Rain = 0
KLA1 250739Z 29001KT 15/15 A301 RMK A01 T01500150  RH  100%=      5-min Rain = 0
KLA1 250740Z 28002KT 15/15 A301 RMK A01 T01490149  RH  100%=      5-min Rain = 0
KLA1 250741Z 28002KT 15/15 A301 RMK A01 T01480148  RH  100%=      5-min Rain = 0
KLA1 250742Z 28002KT 15/15 A301 RMK A01 T01490149  RH  100%=      5-min Rain = 0
KLA1 250743Z 28002KT 15/15 A301 RMK A01 T01490149  RH  100%=      5-min Rain = 0
KLA1 250744Z 29002KT 15/15 A301 RMK A01 T01500150  RH  100%=      5-min Rain = 0
KLA1 250745Z 29002KT 15/15 A301 RMK A01 T01500150  RH  100%=      5-min Rain = 0
KLA1 250746Z 28002KT 15/15 A301 RMK A01 T01500150  RH  100%=      5-min Rain = 0
KLA1 250747Z 28002KT 15/15 A301 RMK A01 T01500150  RH  100%=      5-min Rain = 0
KLA1 250748Z 28001KT 15/15 A301 RMK A01 T01490149  RH  100%=      5-min Rain = 0
KLA1 250749Z 28000KT 15/15 A301 RMK A01 T01480148  RH  100%=      5-min Rain = 0
KLA1 250750Z 30000KT 15/15 A301 RMK A01 T01480149  RH  100%=      5-min Rain = 0
KLA1 250751Z 30001KT 15/15 A301 RMK A01 T01470147  RH  100%=      5-min Rain = 0
KLA1 250752Z 30000KT 14/14 A301 RMK A01 T01430143  RH  100%=      5-min Rain = 0
KLA1 250753Z 00000KT 14/14 A301 RMK A01 T01400140  RH  100%=      5-min Rain = 0
KLA1 250754Z 32000KT 14/14 A301 RMK A01 T01410141  RH  100%=      5-min Rain = 0
KLA1 250755Z 00000KT 14/14 A301 RMK A01 T01410141  RH  100%=      5-min Rain = 0
KLA1 250756Z 00000KT 14/14 A301 RMK A01 T01410141  RH  100%=      5-min Rain = 0
KLA1 250757Z 00000KT 14/14 A301 RMK A01 T01410141  RH  100%=      5-min Rain = 0
KLA1 250758Z 00000KT 14/14 A301 RMK A01 T01410141  RH  100%=      5-min Rain = 0
KLA1 250759Z 36000KT 14/14 A301 RMK A01 T01410141  RH  100%=      5-min Rain = 0
KLA1 250800Z 35001KT 14/14 A301 RMK A01 T01420142  RH  100%=      5-min Rain = 0
KLA1 250801Z 35000KT 14/14 A301 RMK A01 T01440144  RH  100%=      5-min Rain = 0
KLA1 250802Z 28000KT 15/15 A301 RMK A01 T01480148  RH  100%=      5-min Rain = 0
KLA1 250803Z 28000KT 15/15 A301 RMK A01 T01490149  RH  100%=      5-min Rain = 0
KLA1 250804Z 00000KT 15/15 A301 RMK A01 T01480148  RH  100%=      5-min Rain = 0
KLA1 250805Z 00000KT 15/15 A301 RMK A01 T01470148  RH  100%=      5-min Rain = 0
KLA1 250806Z 00000KT 15/15 A301 RMK A01 T01470147  RH  100%=      5-min Rain = 0
KLA1 250807Z 00000KT 15/15 A301 RMK A01 T01470147  RH  100%=      5-min Rain = 0
KLA1 250808Z 02001KT 15/15 A301 RMK A01 T01470147  RH  100%=      5-min Rain = 0
KLA1 250809Z 02001KT 15/15 A301 RMK A01 T01470148  RH  100%=      5-min Rain = 0
KLA1 250810Z 03001KT 15/15 A301 RMK A01 T01460146  RH  100%=      5-min Rain = 0
KLA1 250811Z 03001KT 14/15 A301 RMK A01 T01440145  RH  100%=      5-min Rain = 0
KLA1 250812Z 02001KT 14/14 A301 RMK A01 T01430143  RH  100%=      5-min Rain = 0
KLA1 250813Z 02001KT 14/14 A301 RMK A01 T01420142  RH  100%=      5-min Rain = 0
KLA1 250814Z 02000KT 14/14 A301 RMK A01 T01430143  RH  100%=      5-min Rain = 0
KLA1 250815Z 03000KT 14/14 A3009 RMK A01 T01430144  RH  100%=      5-min Rain = 0
KLA1 250816Z 03000KT 14/14 A3009 RMK A01 T01430143  RH  100%=      5-min Rain = 0
KLA1 250817Z 00000KT 14/14 A3009 RMK A01 T01430143  RH  100%=      5-min Rain = 0
KLA1 250818Z 00000KT 14/14 A3009 RMK A01 T01420142  RH  100%=      5-min Rain = 0
KLA1 250819Z 00000KT 14/14 A3009 RMK A01 T01420142  RH  100%=      5-min Rain = 0
KLA1 250820Z 00000KT 14/14 A3009 RMK A01 T01420142  RH  100%=      5-min Rain = 0
KLA1 250821Z 00000KT 14/14 A3009 RMK A01 T01410141  RH  100%=      5-min Rain = 0
KLA1 250822Z 00000KT 14/14 A3009 RMK A01 T01410141  RH  100%=      5-min Rain = 0
KLA1 250823Z 00000KT 14/14 A3009 RMK A01 T01400140  RH  100%=      5-min Rain = 0
KLA1 250824Z 00001KT 14/14 A3009 RMK A01 T01390140  RH  100%=      5-min Rain = 0
KLA1 250825Z 01002KT 14/14 A3009 RMK A01 T01380138  RH  100%=      5-min Rain = 0
KLA1 250826Z 01002KT 14/14 A3009 RMK A01 T01380138  RH  100%=      5-min Rain = 0
KLA1 250827Z 01003KT 14/14 A3009 RMK A01 T01380138  RH  100%=      5-min Rain = 0
KLA1 250828Z 35002KT 14/14 A3009 RMK A01 T01390139  RH  100%=      5-min Rain = 0
KLA1 250829Z 01002KT 14/14 A3009 RMK A01 T01400140  RH  100%=      5-min Rain = 0
KLA1 250830Z 35002KT 14/14 A3009 RMK A01 T01410141  RH  100%=      5-min Rain = 0
KLA1 250831Z 35002KT 14/14 A3009 RMK A01 T01410141  RH  100%=      5-min Rain = 0
KLA1 250832Z 36002KT 14/14 A3009 RMK A01 T01420142  RH  100%=      5-min Rain = 0
KLA1 250833Z 35002KT 14/14 A3009 RMK A01 T01420142  RH  100%=      5-min Rain = 0
KLA1 250834Z 34001KT 14/14 A3009 RMK A01 T01430143  RH  100%=      5-min Rain = 0
KLA1 250835Z 34000KT 15/15 A3009 RMK A01 T01470147  RH  100%=      5-min Rain = 0
KLA1 250836Z 00002KT 15/15 A3009 RMK A01 T01480148  RH  100%=      5-min Rain = 0
KLA1 250837Z 00002KT 15/15 A3009 RMK A01 T01480148  RH  100%=      5-min Rain = 0
KLA1 250838Z 02002KT 15/15 A3009 RMK A01 T01470147  RH  100%=      5-min Rain = 0
KLA1 250839Z 01003KT 15/15 A3009 RMK A01 T01470147  RH  100%=      5-min Rain = 0
KLA1 250840Z 01004KT 15/15 A3009 RMK A01 T01470147  RH  100%=      5-min Rain = 0
KLA1 250841Z 01004KT 15/15 A3009 RMK A01 T01460146  RH  100%=      5-min Rain = 0
KLA1 250842Z 01004KT 15/15 A3009 RMK A01 T01450145  RH  100%=      5-min Rain = 0
KLA1 250843Z 01005KT 14/14 A3009 RMK A01 T01440144  RH  100%=      5-min Rain = 0
KLA1 250844Z 01005KT 14/14 A3009 RMK A01 T01430143  RH  100%=      5-min Rain = 0
KLA1 250845Z 01005KT 14/14 A3009 RMK A01 T01430144  RH  100%=      5-min Rain = 0
KLA1 250846Z 00004KT 14/14 A3009 RMK A01 T01430144  RH  100%=      5-min Rain = 0
KLA1 250847Z 00004KT 14/14 A3009 RMK A01 T01430143  RH  100%=      5-min Rain = 0
KLA1 250848Z 00004KT 14/14 A3009 RMK A01 T01440144  RH  100%=      5-min Rain = 0
KLA1 250849Z 35003KT 15/15 A3009 RMK A01 T01450145  RH  100%=      5-min Rain = 0
KLA1 250850Z 35003KT 15/15 A3009 RMK A01 T01460146  RH  100%=      5-min Rain = 0
KLA1 250851Z 34002KT 15/15 A3009 RMK A01 T01470147  RH  100%=      5-min Rain = 0
KLA1 250852Z 32001KT 15/15 A3009 RMK A01 T01470147  RH  100%=      5-min Rain = 0
KLA1 250853Z 31001KT 15/15 A3009 RMK A01 T01460146  RH  100%=      5-min Rain = 0
KLA1 250854Z 30001KT 15/15 A3009 RMK A01 T01450145  RH  100%=      5-min Rain = 0
KLA1 250855Z 29002KT 15/15 A3009 RMK A01 T01450145  RH  100%=      5-min Rain = 0
KLA1 250856Z 29002KT 15/15 A3009 RMK A01 T01450145  RH  100%=      5-min Rain = 0
KLA1 250857Z 29001KT 15/15 A3009 RMK A01 T01460146  RH  100%=      5-min Rain = 0
KLA1 250858Z 00000KT 15/15 A3009 RMK A01 T01470147  RH  100%=      5-min Rain = 0
KLA1 250859Z 00000KT 15/15 A3009 RMK A01 T01480148  RH  100%=      5-min Rain = 0
KLA1 250900Z 00000KT 15/15 A3009 RMK A01 T01470147  RH  100%=      5-min Rain = 0
KLA1 250901Z 35001KT 15/15 A3009 RMK A01 T01450145  RH  100%=      5-min Rain = 0
KLA1 250902Z 35002KT 14/14 A3009 RMK A01 T01420143  RH  100%=      5-min Rain = 0
KLA1 250903Z 34002KT 14/14 A3009 RMK A01 T01410141  RH  100%=      5-min Rain = 0
KLA1 250904Z 34001KT 14/14 A3009 RMK A01 T01430143  RH  100%=      5-min Rain = 0
KLA1 250905Z 33001KT 15/15 A3009 RMK A01 T01450145  RH  100%=      5-min Rain = 0
KLA1 250906Z 34000KT 15/15 A3009 RMK A01 T01460146  RH  100%=      5-min Rain = 0
KLA1 250907Z 00000KT 15/15 A3009 RMK A01 T01470147  RH  100%=      5-min Rain = 0
KLA1 250908Z 00000KT 15/15 A3009 RMK A01 T01490149  RH  100%=      5-min Rain = 0
KLA1 250909Z 00000KT 15/15 A3009 RMK A01 T01480148  RH  100%=      5-min Rain = 0
KLA1 250910Z 00000KT 15/15 A3009 RMK A01 T01450145  RH  100%=      5-min Rain = 0
KLA1 250911Z 30001KT 14/14 A3009 RMK A01 T01410141  RH  100%=      5-min Rain = 0
KLA1 250912Z 30002KT 14/14 A3009 RMK A01 T01400140  RH  100%=      5-min Rain = 0
KLA1 250913Z 30002KT 14/14 A3009 RMK A01 T01410141  RH  100%=      5-min Rain = 0
KLA1 250914Z 30001KT 14/14 A3009 RMK A01 T01420143  RH  100%=      5-min Rain = 0
KLA1 250915Z 30001KT 14/14 A3009 RMK A01 T01440144  RH  100%=      5-min Rain = 0
KLA1 250916Z 00000KT 15/15 A3009 RMK A01 T01450145  RH  100%=      5-min Rain = 0
KLA1 250917Z 30000KT 15/15 A3009 RMK A01 T01460146  RH  100%=      5-min Rain = 0
KLA1 250918Z 00000KT 15/15 A3009 RMK A01 T01460146  RH  100%=      5-min Rain = 0
KLA1 250919Z 00000KT 14/14 A3009 RMK A01 T01440144  RH  100%=      5-min Rain = 0
KLA1 250920Z 00000KT 14/14 A3009 RMK A01 T01410141  RH  100%=      5-min Rain = 0
KLA1 250921Z 29000KT 14/14 A3009 RMK A01 T01390139  RH  100%=      5-min Rain = 0
KLA1 250922Z 30001KT 14/14 A3009 RMK A01 T01390139  RH  100%=      5-min Rain = 0
KLA1 250923Z 30000KT 14/14 A3009 RMK A01 T01390139  RH  100%=      5-min Rain = 0
KLA1 250924Z 00000KT 14/14 A3008 RMK A01 T01400140  RH  100%=      5-min Rain = 0
KLA1 250925Z 00000KT 14/14 A3008 RMK A01 T01400140  RH  100%=      5-min Rain = 0
KLA1 250926Z 00000KT 14/14 A3008 RMK A01 T01410141  RH  100%=      5-min Rain = 0
KLA1 250927Z 00000KT 14/14 A3008 RMK A01 T01420142  RH  100%=      5-min Rain = 0
KLA1 250928Z 00000KT 14/14 A3008 RMK A01 T01430143  RH  100%=      5-min Rain = 0
KLA1 250929Z 00000KT 14/14 A3008 RMK A01 T01420143  RH  100%=      5-min Rain = 0
KLA1 250930Z 00000KT 14/14 A3008 RMK A01 T01390140  RH  100%=      5-min Rain = 0
KLA1 250931Z 00000KT 14/14 A3008 RMK A01 T01370137  RH  100%=      5-min Rain = 0
KLA1 250932Z 00000KT 14/14 A3008 RMK A01 T01360136  RH  100%=      5-min Rain = 0
KLA1 250933Z 00000KT 14/14 A3008 RMK A01 T01360136  RH  100%=      5-min Rain = 0
KLA1 250934Z 00000KT 14/14 A3008 RMK A01 T01360136  RH  100%=      5-min Rain = 0
KLA1 250935Z 00000KT 14/14 A3008 RMK A01 T01360136  RH  100%=      5-min Rain = 0
KLA1 250936Z 00000KT 14/14 A3008 RMK A01 T01360136  RH  100%=      5-min Rain = 0
KLA1 250937Z 00000KT 14/14 A3008 RMK A01 T01360136  RH  100%=      5-min Rain = 0
KLA1 250938Z 00001KT 14/14 A3008 RMK A01 T01360136  RH  100%=      5-min Rain = 0
KLA1 250939Z 01003KT 14/14 A3009 RMK A01 T01350135  RH  100%=      5-min Rain = 0
KLA1 250940Z 01004KT 14/14 A3009 RMK A01 T01360136  RH  100%=      5-min Rain = 0
KLA1 250941Z 01004KT 14/14 A3009 RMK A01 T01370137  RH  100%=      5-min Rain = 0
KLA1 250942Z 01003KT 14/14 A3009 RMK A01 T01360136  RH  100%=      5-min Rain = 0
KLA1 250943Z 00003KT 14/14 A3009 RMK A01 T01360136  RH  100%=      5-min Rain = 0
KLA1 250944Z 36003KT 14/14 A3009 RMK A01 T01350135  RH  100%=      5-min Rain = 0
KLA1 250945Z 00002KT 14/14 A3009 RMK A01 T01350135  RH  100%=      5-min Rain = 0
KLA1 250946Z 00002KT 13/13 A3009 RMK A01 T01340134  RH  100%=      5-min Rain = 0
KLA1 250947Z 00002KT 13/13 A3009 RMK A01 T01340134  RH  100%=      5-min Rain = 0
KLA1 250948Z 35001KT 14/14 A3009 RMK A01 T01350135  RH  100%=      5-min Rain = 0
KLA1 250949Z 35001KT 14/14 A3009 RMK A01 T01360136  RH  100%=      5-min Rain = 0
KLA1 250950Z 28000KT 14/14 A3009 RMK A01 T01360136  RH  100%=      5-min Rain = 0
KLA1 250951Z 27000KT 14/14 A3009 RMK A01 T01380139  RH  100%=      5-min Rain = 0
KLA1 250952Z 27001KT 14/14 A3009 RMK A01 T01400140  RH  100%=      5-min Rain = 0
KLA1 250953Z 27000KT 14/14 A3009 RMK A01 T01410141  RH  100%=      5-min Rain = 0
KLA1 250954Z 00000KT 14/14 A3009 RMK A01 T01420142  RH  100%=      5-min Rain = 0
KLA1 250955Z 00000KT 14/14 A3009 RMK A01 T01420142  RH  100%=      5-min Rain = 0
KLA1 250956Z 27000KT 14/14 A3009 RMK A01 T01420143  RH  100%=      5-min Rain = 0
KLA1 250957Z 27000KT 14/14 A3009 RMK A01 T01430143  RH  100%=      5-min Rain = 0
KLA1 250958Z 27000KT 14/14 A3009 RMK A01 T01420142  RH  100%=      5-min Rain = 0
KLA1 250959Z 27001KT 14/14 A3009 RMK A01 T01410141  RH  100%=      5-min Rain = 0
KLA1 251000Z 27002KT 14/14 A3009 RMK A01 T01400140  RH  100%=      5-min Rain = 0
KLA1 251001Z 27002KT 14/14 A3009 RMK A01 T01370137  RH  100%=      5-min Rain = 0
KLA1 251002Z 27002KT 13/13 A3009 RMK A01 T01340134  RH  100%=      5-min Rain = 0
KLA1 251003Z 28002KT 13/13 A3009 RMK A01 T01320132  RH  100%=      5-min Rain = 0
KLA1 251004Z 27002KT 13/13 A3009 RMK A01 T01310131  RH  100%=      5-min Rain = 0
KLA1 251005Z 27001KT 13/13 A3009 RMK A01 T01290129  RH  100%=      5-min Rain = 0
KLA1 251006Z 20001KT 13/13 A3009 RMK A01 T01270127  RH  100%=      5-min Rain = 0
KLA1 251007Z 22001KT 13/13 A3009 RMK A01 T01250125  RH  100%=      5-min Rain = 0
KLA1 251008Z 24000KT 12/12 A3009 RMK A01 T01230123  RH  100%=      5-min Rain = 0
KLA1 251009Z 25000KT 12/12 A3009 RMK A01 T01230123  RH  100%=      5-min Rain = 0
KLA1 251010Z 00000KT 12/12 A3009 RMK A01 T01230123  RH  100%=      5-min Rain = 0
KLA1 251011Z 00000KT 12/12 A3009 RMK A01 T01230123  RH  100%=      5-min Rain = 0
KLA1 251012Z 00000KT 12/12 A3009 RMK A01 T01230123  RH  100%=      5-min Rain = 0
KLA1 251013Z 00000KT 12/12 A3009 RMK A01 T01240124  RH  100%=      5-min Rain = 0
KLA1 251014Z 00000KT 12/13 A3009 RMK A01 T01240125  RH  100%=      5-min Rain = 0
KLA1 251015Z 29000KT 13/13 A3009 RMK A01 T01250125  RH  100%=      5-min Rain = 0
KLA1 251016Z 30001KT 13/13 A3009 RMK A01 T01260127  RH  100%=      5-min Rain = 0
KLA1 251017Z 30001KT 13/13 A3009 RMK A01 T01270127  RH  100%=      5-min Rain = 0
KLA1 251018Z 30001KT 13/13 A3009 RMK A01 T01280128  RH  100%=      5-min Rain = 0
KLA1 251019Z 30000KT 13/13 A3009 RMK A01 T01290129  RH  100%=      5-min Rain = 0
KLA1 251020Z 00000KT 13/13 A3009 RMK A01 T01290129  RH  100%=      5-min Rain = 0
KLA1 251021Z 30000KT 13/13 A3009 RMK A01 T01290129  RH  100%=      5-min Rain = 0
KLA1 251022Z 30000KT 13/13 A3009 RMK A01 T01290129  RH  100%=      5-min Rain = 0
KLA1 251023Z 30000KT 13/13 A3009 RMK A01 T01300130  RH  100%=      5-min Rain = 0
KLA1 251024Z 00000KT 13/13 A3009 RMK A01 T01300130  RH  100%=      5-min Rain = 0
KLA1 251025Z 30000KT 13/13 A3009 RMK A01 T01310131  RH  100%=      5-min Rain = 0
KLA1 251026Z 30000KT 13/13 A3009 RMK A01 T01310131  RH  100%=      5-min Rain = 0
KLA1 251027Z 30000KT 13/13 A3009 RMK A01 T01310131  RH  100%=      5-min Rain = 0
KLA1 251028Z 00000KT 13/13 A3009 RMK A01 T01310131  RH  100%=      5-min Rain = 0
KLA1 251029Z 28000KT 13/13 A3009 RMK A01 T01310131  RH  100%=      5-min Rain = 0
KLA1 251030Z 00000KT 13/13 A3009 RMK A01 T01310131  RH  100%=      5-min Rain = 0
KLA1 251031Z 00000KT 13/13 A3009 RMK A01 T01310131  RH  100%=      5-min Rain = 0
KLA1 251032Z 00000KT 13/13 A3009 RMK A01 T01310131  RH  100%=      5-min Rain = 0
KLA1 251033Z 00000KT 13/13 A3009 RMK A01 T01310131  RH  100%=      5-min Rain = 0
KLA1 251034Z 00000KT 13/13 A3009 RMK A01 T01310131  RH  100%=      5-min Rain = 0
KLA1 251035Z 00000KT 13/13 A3009 RMK A01 T01320132  RH  100%=      5-min Rain = 0
KLA1 251036Z 00000KT 13/13 A3009 RMK A01 T01320132  RH  100%=      5-min Rain = 0
KLA1 251037Z 00000KT 13/13 A3009 RMK A01 T01330133  RH  100%=      5-min Rain = 0
KLA1 251038Z 00000KT 13/13 A3009 RMK A01 T01340134  RH  100%=      5-min Rain = 0
KLA1 251039Z 31000KT 13/13 A3009 RMK A01 T01340134  RH  100%=      5-min Rain = 0
KLA1 251040Z 31000KT 14/14 A3009 RMK A01 T01350135  RH  100%=      5-min Rain = 0
KLA1 251041Z 31000KT 14/14 A3009 RMK A01 T01350135  RH  100%=      5-min Rain = 0
KLA1 251042Z 31000KT 14/14 A3009 RMK A01 T01360136  RH  100%=      5-min Rain = 0
KLA1 251043Z 31000KT 14/14 A3009 RMK A01 T01360136  RH  100%=      5-min Rain = 0
KLA1 251044Z 32000KT 14/14 A3009 RMK A01 T01360137  RH  100%=      5-min Rain = 0
KLA1 251045Z 33001KT 14/14 A3009 RMK A01 T01370137  RH  100%=      5-min Rain = 0
KLA1 251046Z 33001KT 14/14 A3009 RMK A01 T01380138  RH  100%=      5-min Rain = 0
KLA1 251047Z 33001KT 14/14 A3009 RMK A01 T01380138  RH  100%=      5-min Rain = 0
KLA1 251048Z 32001KT 14/14 A3009 RMK A01 T01380138  RH  100%=      5-min Rain = 0
KLA1 251049Z 31001KT 14/14 A3009 RMK A01 T01380138  RH  100%=      5-min Rain = 0
KLA1 251050Z 29002KT 14/14 A3009 RMK A01 T01380138  RH  100%=      5-min Rain = 0
KLA1 251051Z 29001KT 14/14 A3009 RMK A01 T01390139  RH  100%=      5-min Rain = 0
KLA1 251052Z 29001KT 14/14 A3009 RMK A01 T01400140  RH  100%=      5-min Rain = 0
KLA1 251053Z 29002KT 14/14 A3009 RMK A01 T01400140  RH  100%=      5-min Rain = 0
KLA1 251054Z 29002KT 14/14 A3009 RMK A01 T01400140  RH  100%=      5-min Rain = 0
KLA1 251055Z 29002KT 14/14 A3009 RMK A01 T01410141  RH  100%=      5-min Rain = 0
KLA1 251056Z 29002KT 14/14 A3009 RMK A01 T01410141  RH  100%=      5-min Rain = 0
KLA1 251057Z 29002KT 14/14 A3009 RMK A01 T01410141  RH  100%=      5-min Rain = 0
KLA1 251058Z 29002KT 14/14 A3009 RMK A01 T01410141  RH  100%=      5-min Rain = 0
KLA1 251059Z 29002KT 14/14 A3009 RMK A01 T01410141  RH  100%=      5-min Rain = 0
KLA1 251100Z 29003KT 14/14 A3009 RMK A01 T01410141  RH  100%=      5-min Rain = 0
KLA1 251101Z 29003KT 14/14 A3009 RMK A01 T01410141  RH  100%=      5-min Rain = 0
KLA1 251102Z 29003KT 14/14 A3009 RMK A01 T01410141  RH  100%=      5-min Rain = 0
KLA1 251103Z 29003KT 14/14 A3009 RMK A01 T01410141  RH  100%=      5-min Rain = 0
KLA1 251104Z 30003KT 14/14 A3009 RMK A01 T01410141  RH  100%=      5-min Rain = 0
KLA1 251105Z 29003KT 14/14 A3009 RMK A01 T01410141  RH  100%=      5-min Rain = 0
KLA1 251106Z 28003KT 14/14 A3009 RMK A01 T01410141  RH  100%=      5-min Rain = 0
KLA1 251107Z 28003KT 14/14 A3009 RMK A01 T01410141  RH  100%=      5-min Rain = 0
KLA1 251108Z 28002KT 14/14 A3009 RMK A01 T01410141  RH  100%=      5-min Rain = 0
KLA1 251109Z 28002KT 14/14 A3009 RMK A01 T01410141  RH  100%=      5-min Rain = 0
KLA1 251110Z 29002KT 14/14 A3009 RMK A01 T01400140  RH  100%=      5-min Rain = 0
KLA1 251111Z 29002KT 14/14 A3009 RMK A01 T01400140  RH  100%=      5-min Rain = 0
KLA1 251112Z 29002KT 14/14 A3009 RMK A01 T01400140  RH  100%=      5-min Rain = 0
KLA1 251113Z 29002KT 14/14 A3009 RMK A01 T01400140  RH  100%=      5-min Rain = 0
KLA1 251114Z 28002KT 14/14 A301 RMK A01 T01400140  RH  100%=      5-min Rain = 0
KLA1 251115Z 28002KT 14/14 A301 RMK A01 T01400140  RH  100%=      5-min Rain = 0
KLA1 251116Z 29002KT 14/14 A301 RMK A01 T01400140  RH  100%=      5-min Rain = 0
KLA1 251117Z 29002KT 14/14 A301 RMK A01 T01400140  RH  100%=      5-min Rain = 0
KLA1 251118Z 29002KT 14/14 A3009 RMK A01 T01400140  RH  100%=      5-min Rain = 0
KLA1 251119Z 28002KT 14/14 A3009 RMK A01 T01400140  RH  100%=      5-min Rain = 0
KLA1 251120Z 29002KT 14/14 A3009 RMK A01 T01400140  RH  100%=      5-min Rain = 0
KLA1 251121Z 29002KT 14/14 A3009 RMK A01 T01400140  RH  100%=      5-min Rain = 0
KLA1 251122Z 29002KT 14/14 A301 RMK A01 T01400140  RH  100%=      5-min Rain = 0
KLA1 251123Z 28002KT 14/14 A301 RMK A01 T01410141  RH  100%=      5-min Rain = 0
KLA1 251124Z 28002KT 14/14 A301 RMK A01 T01410141  RH  100%=      5-min Rain = 0
KLA1 251125Z 28002KT 14/14 A301 RMK A01 T01410141  RH  100%=      5-min Rain = 0
KLA1 251126Z 27002KT 14/14 A301 RMK A01 T01410141  RH  100%=      5-min Rain = 0
KLA1 251127Z 28002KT 14/14 A301 RMK A01 T01410141  RH  100%=      5-min Rain = 0
KLA1 251128Z 26001KT 14/14 A301 RMK A01 T01410141  RH  100%=      5-min Rain = 0
KLA1 251129Z 26001KT 14/14 A301 RMK A01 T01410141  RH  100%=      5-min Rain = 0
KLA1 251130Z 27001KT 14/14 A301 RMK A01 T01410141  RH  100%=      5-min Rain = 0
KLA1 251131Z 27002KT 14/14 A301 RMK A01 T01410141  RH  100%=      5-min Rain = 0
KLA1 251132Z 29001KT 14/14 A301 RMK A01 T01410141  RH  100%=      5-min Rain = 0
KLA1 251133Z 29001KT 14/14 A301 RMK A01 T01420142  RH  100%=      5-min Rain = 0
KLA1 251134Z 28002KT 14/14 A301 RMK A01 T01420142  RH  100%=      5-min Rain = 0
KLA1 251135Z 28001KT 14/14 A301 RMK A01 T01430143  RH  100%=      5-min Rain = 0
KLA1 251136Z 28000KT 14/14 A3009 RMK A01 T01420143  RH  100%=      5-min Rain = 0
KLA1 251137Z 28000KT 14/14 A3009 RMK A01 T01430143  RH  100%=      5-min Rain = 0
KLA1 251138Z 29001KT 14/14 A3009 RMK A01 T01430143  RH  100%=      5-min Rain = 0
KLA1 251139Z 29001KT 14/14 A301 RMK A01 T01430143  RH  100%=      5-min Rain = 0
KLA1 251140Z 29001KT 14/14 A301 RMK A01 T01430143  RH  100%=      5-min Rain = 0
KLA1 251141Z 28000KT 14/14 A301 RMK A01 T01430143  RH  100%=      5-min Rain = 0
KLA1 251142Z 28000KT 14/14 A301 RMK A01 T01430143  RH  100%=      5-min Rain = 0
KLA1 251143Z 00000KT 14/14 A301 RMK A01 T01430143  RH  100%=      5-min Rain = 0
KLA1 251144Z 00000KT 14/14 A301 RMK A01 T01430143  RH  100%=      5-min Rain = 0
KLA1 251145Z 00000KT 14/14 A301 RMK A01 T01430143  RH  100%=      5-min Rain = 0
KLA1 251146Z 00000KT 14/14 A301 RMK A01 T01430143  RH  100%=      5-min Rain = 0
KLA1 251147Z 00000KT 14/14 A301 RMK A01 T01440144  RH  100%=      5-min Rain = 0
KLA1 251148Z 00000KT 14/14 A3009 RMK A01 T01440144  RH  100%=      5-min Rain = 0
KLA1 251149Z 00000KT 14/14 A3009 RMK A01 T01440144  RH  100%=      5-min Rain = 0
KLA1 251150Z 28000KT 14/14 A3009 RMK A01 T01440144  RH  100%=      5-min Rain = 0
KLA1 251151Z 28001KT 14/14 A301 RMK A01 T01440144  RH  100%=      5-min Rain = 0
KLA1 251152Z 08001KT 14/14 A301 RMK A01 T01440144  RH  100%=      5-min Rain = 0
KLA1 251153Z 08001KT 14/14 A301 RMK A01 T01440144  RH  100%=      5-min Rain = 0
KLA1 251154Z 08000KT 14/14 A301 RMK A01 T01440144  RH  100%=      5-min Rain = 0
KLA1 251155Z 00000KT 14/14 A301 RMK A01 T01440144  RH  100%=      5-min Rain = 0
KLA1 251156Z 00000KT 15/15 A301 RMK A01 T01450145  RH  100%=      5-min Rain = 0
KLA1 251157Z 00000KT 14/14 A301 RMK A01 T01440144  RH  100%=      5-min Rain = 0
KLA1 251158Z 00000KT 15/15 A301 RMK A01 T01450145  RH  100%=      5-min Rain = 0
KLA1 251159Z 00000KT 15/15 A301 RMK A01 T01450145  RH  100%=      5-min Rain = 0
KLA1 251200Z 00000KT 15/15 A301 RMK A01 T01450145  RH  100%=      5-min Rain = 0
KLA1 251201Z 00000KT 15/15 A301 RMK A01 T01450145  RH  100%=      5-min Rain = 0
KLA1 251202Z 00000KT 15/15 A301 RMK A01 T01450145  RH  100%=      5-min Rain = 0
KLA1 251203Z 00000KT 15/15 A301 RMK A01 T01460146  RH  100%=      5-min Rain = 0
KLA1 251204Z 00000KT 15/15 A301 RMK A01 T01460146  RH  100%=      5-min Rain = 0
KLA1 251205Z 00000KT 15/15 A301 RMK A01 T01460146  RH  100%=      5-min Rain = 0
KLA1 251206Z 00000KT 15/15 A301 RMK A01 T01460147  RH  100%=      5-min Rain = 0
KLA1 251207Z 00000KT 15/15 A301 RMK A01 T01470147  RH  100%=      5-min Rain = 0
KLA1 251208Z 00000KT 15/15 A3011 RMK A01 T01470147  RH  100%=      5-min Rain = 0
KLA1 251209Z 00000KT 15/15 A3011 RMK A01 T01470147  RH  100%=      5-min Rain = 0
KLA1 251210Z 00000KT 15/15 A3011 RMK A01 T01470147  RH  100%=      5-min Rain = 0
KLA1 251211Z 00000KT 15/15 A3011 RMK A01 T01470147  RH  100%=      5-min Rain = 0
KLA1 251212Z 00000KT 15/15 A3011 RMK A01 T01470147  RH  100%=      5-min Rain = 0
KLA1 251213Z 00000KT 15/15 A3011 RMK A01 T01470147  RH  100%=      5-min Rain = 0
KLA1 251214Z 00000KT 15/15 A3011 RMK A01 T01480148  RH  100%=      5-min Rain = 0
KLA1 251215Z 00000KT 15/15 A3011 RMK A01 T01480148  RH  100%=      5-min Rain = 0
KLA1 251216Z 00000KT 15/15 A3011 RMK A01 T01480148  RH  100%=      5-min Rain = 0
KLA1 251217Z 00000KT 15/15 A3011 RMK A01 T01480148  RH  100%=      5-min Rain = 0
KLA1 251218Z 00000KT 15/15 A3011 RMK A01 T01480148  RH  100%=      5-min Rain = 0
KLA1 251219Z 00000KT 15/15 A3011 RMK A01 T01480148  RH  100%=      5-min Rain = 0
KLA1 251220Z 00000KT 15/15 A3011 RMK A01 T01480148  RH  100%=      5-min Rain = 0
KLA1 251221Z 00000KT 15/15 A3011 RMK A01 T01480148  RH  100%=      5-min Rain = 0
KLA1 251222Z 00000KT 15/15 A3011 RMK A01 T01480148  RH  100%=      5-min Rain = 0
KLA1 251223Z 00000KT 15/15 A3011 RMK A01 T01480148  RH  100%=      5-min Rain = 0
KLA1 251224Z 00000KT 15/15 A3011 RMK A01 T01480148  RH  100%=      5-min Rain = 0
KLA1 251225Z 00000KT 15/15 A3011 RMK A01 T01490149  RH  100%=      5-min Rain = 0
KLA1 251226Z 00000KT 15/15 A3011 RMK A01 T01480149  RH  100%=      5-min Rain = 0
KLA1 251227Z 00000KT 15/15 A3011 RMK A01 T01490149  RH  100%=      5-min Rain = 0
KLA1 251228Z 00000KT 15/15 A3011 RMK A01 T01480149  RH  100%=      5-min Rain = 0
KLA1 251229Z 00000KT 15/15 A3012 RMK A01 T01490149  RH  100%=      5-min Rain = 0
KLA1 251230Z 00000KT 15/15 A3012 RMK A01 T01490149  RH  100%=      5-min Rain = 0
KLA1 251231Z 00000KT 15/15 A3012 RMK A01 T01490149  RH  100%=      5-min Rain = 0
KLA1 251232Z 00000KT 15/15 A3012 RMK A01 T01490149  RH  100%=      5-min Rain = 0
KLA1 251233Z 02000KT 15/15 A3012 RMK A01 T01490149  RH  100%=      5-min Rain = 0
KLA1 251234Z 02001KT 15/15 A3012 RMK A01 T01500150  RH  100%=      5-min Rain = 0
KLA1 251235Z 01001KT 15/15 A3012 RMK A01 T01500150  RH  100%=      5-min Rain = 0
KLA1 251236Z 01001KT 15/15 A3012 RMK A01 T01500150  RH  100%=      5-min Rain = 0
KLA1 251237Z 00001KT 15/15 A3013 RMK A01 T01500150  RH  100%=      5-min Rain = 0
KLA1 251238Z 36001KT 15/15 A3013 RMK A01 T01500150  RH  100%=      5-min Rain = 0
KLA1 251239Z 35001KT 15/15 A3013 RMK A01 T01500150  RH  100%=      5-min Rain = 0
KLA1 251240Z 35001KT 15/15 A3013 RMK A01 T01510151  RH  100%=      5-min Rain = 0
KLA1 251241Z 35001KT 15/15 A3013 RMK A01 T01510151  RH  100%=      5-min Rain = 0
KLA1 251242Z 35000KT 15/15 A3013 RMK A01 T01510151  RH  100%=      5-min Rain = 0
KLA1 251243Z 00000KT 15/15 A3013 RMK A01 T01510151  RH  100%=      5-min Rain = 0
KLA1 251244Z 35000KT 15/15 A3013 RMK A01 T01510151  RH  100%=      5-min Rain = 0
KLA1 251245Z 35001KT 15/15 A3013 RMK A01 T01510151  RH  100%=      5-min Rain = 0
KLA1 251246Z 01001KT 15/15 A3013 RMK A01 T01510151  RH  100%=      5-min Rain = 0
KLA1 251247Z 01001KT 15/15 A3013 RMK A01 T01510151  RH  100%=      5-min Rain = 0
KLA1 251248Z 35001KT 15/15 A3013 RMK A01 T01510151  RH  100%=      5-min Rain = 0
KLA1 251249Z 34000KT 15/15 A3013 RMK A01 T01510152  RH  100%=      5-min Rain = 0
KLA1 251250Z 00000KT 15/15 A3013 RMK A01 T01520152  RH  100%=      5-min Rain = 0
KLA1 251251Z 00000KT 15/15 A3013 RMK A01 T01520152  RH  100%=      5-min Rain = 0
KLA1 251252Z 00000KT 15/15 A3013 RMK A01 T01520152  RH  100%=      5-min Rain = 0
KLA1 251253Z 31001KT 15/15 A3013 RMK A01 T01530153  RH  100%=      5-min Rain = 0
KLA1 251254Z 31002KT 15/15 A3013 RMK A01 T01530153  RH  100%=      5-min Rain = 0
KLA1 251255Z 31002KT 15/15 A3014 RMK A01 T01530153  RH  100%=      5-min Rain = 0
KLA1 251256Z 30001KT 15/15 A3014 RMK A01 T01530153  RH  100%=      5-min Rain = 0
KLA1 251257Z 31001KT 15/15 A3014 RMK A01 T01530153  RH  100%=      5-min Rain = 0
KLA1 251258Z 31001KT 15/15 A3014 RMK A01 T01530153  RH  100%=      5-min Rain = 0
KLA1 251259Z 30001KT 15/15 A3014 RMK A01 T01530153  RH  100%=      5-min Rain = 0
KLA1 251300Z 30001KT 15/15 A3014 RMK A01 T01530153  RH  100%=      5-min Rain = 0
KLA1 251301Z 30000KT 15/15 A3014 RMK A01 T01530153  RH  100%=      5-min Rain = 0
KLA1 251302Z 00000KT 15/15 A3014 RMK A01 T01530153  RH  100%=      5-min Rain = 0
KLA1 251303Z 00000KT 15/15 A3014 RMK A01 T01530153  RH  100%=      5-min Rain = 0
KLA1 251304Z 00000KT 15/15 A3014 RMK A01 T01530153  RH  100%=      5-min Rain = 0
KLA1 251305Z 00000KT 15/15 A3014 RMK A01 T01530153  RH  100%=      5-min Rain = 0
KLA1 251306Z 00000KT 15/15 A3014 RMK A01 T01530153  RH  100%=      5-min Rain = 0
KLA1 251307Z 00000KT 15/15 A3014 RMK A01 T01530153  RH  100%=      5-min Rain = 0
KLA1 251308Z 00000KT 15/15 A3014 RMK A01 T01530153  RH  100%=      5-min Rain = 0
KLA1 251309Z 00000KT 15/15 A3014 RMK A01 T01530153  RH  100%=      5-min Rain = 0
KLA1 251310Z 23000KT 15/15 A3014 RMK A01 T01530153  RH  100%=      5-min Rain = 0
KLA1 251311Z 20001KT 15/15 A3014 RMK A01 T01530153  RH  100%=      5-min Rain = 0
KLA1 251312Z 20001KT 15/15 A3014 RMK A01 T01530153  RH  100%=      5-min Rain = 0
KLA1 251313Z 20000KT 15/15 A3014 RMK A01 T01530153  RH  100%=      5-min Rain = 0
KLA1 251314Z 00000KT 15/15 A3014 RMK A01 T01530153  RH  100%=      5-min Rain = 0
KLA1 251315Z 00000KT 15/15 A3014 RMK A01 T01530153  RH  100%=      5-min Rain = 0
KLA1 251316Z 00000KT 15/15 A3014 RMK A01 T01530153  RH  100%=      5-min Rain = 0
KLA1 251317Z 00000KT 15/15 A3014 RMK A01 T01530153  RH  100%=      5-min Rain = 0
KLA1 251318Z 00000KT 15/15 A3014 RMK A01 T01530153  RH  100%=      5-min Rain = 0
KLA1 251319Z 00000KT 15/15 A3014 RMK A01 T01530153  RH  100%=      5-min Rain = 0
KLA1 251320Z 00000KT 15/15 A3014 RMK A01 T01530154  RH  100%=      5-min Rain = 0
KLA1 251321Z 00000KT 15/15 A3014 RMK A01 T01540154  RH  100%=      5-min Rain = 0
KLA1 251322Z 19001KT 15/15 A3014 RMK A01 T01540154  RH  100%=      5-min Rain = 0
KLA1 251323Z 19001KT 15/15 A3014 RMK A01 T01530153  RH  100%=      5-min Rain = 0
KLA1 251324Z 19001KT 15/15 A3014 RMK A01 T01540154  RH  100%=      5-min Rain = 0
KLA1 251325Z 19001KT 15/15 A3014 RMK A01 T01540154  RH  100%=      5-min Rain = 0
KLA1 251326Z 19000KT 15/15 A3014 RMK A01 T01540154  RH  100%=      5-min Rain = 0
KLA1 251327Z 00000KT 15/15 A3014 RMK A01 T01540154  RH  100%=      5-min Rain = 0
KLA1 251328Z 00000KT 15/15 A3014 RMK A01 T01540154  RH  100%=      5-min Rain = 0
KLA1 251329Z 23000KT 15/15 A3014 RMK A01 T01540154  RH  100%=      5-min Rain = 0
KLA1 251330Z 24000KT 15/15 A3014 RMK A01 T01540154  RH  100%=      5-min Rain = 0
KLA1 251331Z 24000KT 15/15 A3014 RMK A01 T01530154  RH  100%=      5-min Rain = 0
KLA1 251332Z 00000KT 15/15 A3014 RMK A01 T01540154  RH  100%=      5-min Rain = 0
KLA1 251333Z 00000KT 15/15 A3014 RMK A01 T01540154  RH  100%=      5-min Rain = 0
KLA1 251334Z 00000KT 15/15 A3014 RMK A01 T01540154  RH  100%=      5-min Rain = 0
KLA1 251335Z 00000KT 15/15 A3014 RMK A01 T01540154  RH  100%=      5-min Rain = 0
KLA1 251336Z 32001KT 15/15 A3014 RMK A01 T01540154  RH  100%=      5-min Rain = 0
KLA1 251337Z 33002KT 15/16 A3015 RMK A01 T01540155  RH  100%=      5-min Rain = 0
KLA1 251338Z 32003KT 15/16 A3015 RMK A01 T01540155  RH  100%=      5-min Rain = 0
KLA1 251339Z 31002KT 16/16 A3015 RMK A01 T01550155  RH  100%=      5-min Rain = 0
KLA1 251340Z 30002KT 16/16 A3015 RMK A01 T01550155  RH  100%=      5-min Rain = 0
KLA1 251341Z 31002KT 16/16 A3015 RMK A01 T01550155  RH  100%=      5-min Rain = 0
KLA1 251342Z 31003KT 15/16 A3015 RMK A01 T01540155  RH  100%=      5-min Rain = 0
KLA1 251343Z 31002KT 15/16 A3015 RMK A01 T01540155  RH  100%=      5-min Rain = 0
KLA1 251344Z 30002KT 15/16 A3015 RMK A01 T01540155  RH  100%=      5-min Rain = 0
KLA1 251345Z 30002KT 15/16 A3015 RMK A01 T01540155  RH  100%=      5-min Rain = 0
KLA1 251346Z 30003KT 16/16 A3015 RMK A01 T01550155  RH  100%=      5-min Rain = 0
KLA1 251347Z 31003KT 16/16 A3015 RMK A01 T01550155  RH  100%=      5-min Rain = 0
KLA1 251348Z 31002KT 16/16 A3015 RMK A01 T01550155  RH  100%=      5-min Rain = 0
KLA1 251349Z 30002KT 16/16 A3015 RMK A01 T01550155  RH  100%=      5-min Rain = 0
KLA1 251350Z 28002KT 16/16 A3015 RMK A01 T01550156  RH  100%=      5-min Rain = 0
KLA1 251351Z 29002KT 16/16 A3015 RMK A01 T01560156  RH  100%=      5-min Rain = 0
KLA1 251352Z 30003KT 16/16 A3016 RMK A01 T01550156  RH  100%=      5-min Rain = 0
KLA1 251353Z 31003KT 16/16 A3016 RMK A01 T01550156  RH  100%=      5-min Rain = 0
KLA1 251354Z 31003KT 16/16 A3016 RMK A01 T01550155  RH  100%=      5-min Rain = 0
KLA1 251355Z 33002KT 16/16 A3016 RMK A01 T01550155  RH  100%=      5-min Rain = 0
KLA1 251356Z 33003KT 16/16 A3016 RMK A01 T01560156  RH  100%=      5-min Rain = 0
KLA1 251357Z 34003KT 16/16 A3016 RMK A01 T01560156  RH  100%=      5-min Rain = 0
KLA1 251358Z 33003KT 16/16 A3016 RMK A01 T01560156  RH  100%=      5-min Rain = 0
KLA1 251359Z 33003KT 16/16 A3016 RMK A01 T01560157  RH  100%=      5-min Rain = 0
KLA1 251400Z 32002KT 16/16 A3016 RMK A01 T01560156  RH  100%=      5-min Rain = 0
KLA1 251401Z 04001KT 16/16 A3016 RMK A01 T01560156  RH  100%=      5-min Rain = 0
KLA1 251402Z 33001KT 16/16 A3017 RMK A01 T01570157  RH  100%=      5-min Rain = 0
KLA1 251403Z 36003KT 16/16 A3016 RMK A01 T01570157  RH  100%=      5-min Rain = 0
KLA1 251404Z 02001KT 16/16 A3016 RMK A01 T01570157  RH  100%=      5-min Rain = 0
KLA1 251405Z 01001KT 16/16 A3017 RMK A01 T01580158  RH  100%=      5-min Rain = 0
KLA1 251406Z 01003KT 16/16 A3017 RMK A01 T01580158  RH  100%=      5-min Rain = 0
KLA1 251407Z 01005KT 16/16 A3017 RMK A01 T01580158  RH  100%=      5-min Rain = 0
KLA1 251408Z 35007KT 16/16 A3017 RMK A01 T01580158  RH  100%=      5-min Rain = 0
KLA1 251409Z 36008KT 16/16 A3017 RMK A01 T01590159  RH  100%=      5-min Rain = 0
KLA1 251410Z 36009KT 16/16 A3017 RMK A01 T01580159  RH  100%=      5-min Rain = 0
KLA1 251411Z 36009KT 16/16 A3017 RMK A01 T01590159  RH  100%=      5-min Rain = 0
KLA1 251412Z 36010KT 16/16 A3017 RMK A01 T01580158  RH  100%=      5-min Rain = 0
KLA1 251413Z 36008KT 16/16 A3017 RMK A01 T01580158  RH  100%=      5-min Rain = 0
KLA1 251414Z 36008KT 16/16 A3017 RMK A01 T01580158  RH  100%=      5-min Rain = 0
KLA1 251415Z 00009KT 16/16 A3018 RMK A01 T01580158  RH  100%=      5-min Rain = 0
KLA1 251416Z 36007KT 16/16 A3018 RMK A01 T01580158  RH  100%=      5-min Rain = 0
KLA1 251417Z 01009KT 16/16 A3018 RMK A01 T01580158  RH  100%=      5-min Rain = 0
KLA1 251418Z 01009KT 16/16 A3018 RMK A01 T01570158  RH  100%=      5-min Rain = 0
KLA1 251419Z 01008KT 16/16 A3018 RMK A01 T01570157  RH  100%=      5-min Rain = 0
KLA1 251420Z 00009KT 16/16 A3018 RMK A01 T01560157  RH  100%=      5-min Rain = 0
KLA1 251421Z 36008KT 16/16 A3018 RMK A01 T01560156  RH  100%=      5-min Rain = 0
KLA1 251422Z 36007KT 16/16 A3018 RMK A01 T01560157  RH  100%=      5-min Rain = 0
KLA1 251423Z 35007KT 16/16 A3018 RMK A01 T01570157  RH  100%=      5-min Rain = 0
KLA1 251424Z 00006KT 16/16 A3018 RMK A01 T01570158  RH  100%=      5-min Rain = 0
KLA1 251425Z 01005KT 16/16 A3018 RMK A01 T01580158  RH  100%=      5-min Rain = 0
KLA1 251426Z 01007KT 16/16 A3018 RMK A01 T01580158  RH  100%=      5-min Rain = 0
KLA1 251427Z 01005KT 16/16 A3018 RMK A01 T01580158  RH  100%=      5-min Rain = 0
KLA1 251428Z 36005KT 16/16 A3018 RMK A01 T01580158  RH  100%=      5-min Rain = 0
KLA1 251429Z 00005KT 16/16 A3018 RMK A01 T01580158  RH  100%=      5-min Rain = 0
KLA1 251430Z 00006KT 16/16 A3018 RMK A01 T01590159  RH  100%=      5-min Rain = 0
KLA1 251431Z 00004KT 16/16 A3018 RMK A01 T01600160  RH  100%=      5-min Rain = 0
KLA1 251432Z 01007KT 16/16 A3018 RMK A01 T01610161  RH  100%=      5-min Rain = 0
KLA1 251433Z 01005KT 16/16 A3018 RMK A01 T01610162  RH  100%=      5-min Rain = 0
KLA1 251434Z 01006KT 16/16 A3018 RMK A01 T01620162  RH  100%=      5-min Rain = 0
KLA1 251435Z 01005KT 16/16 A3018 RMK A01 T01620162  RH  100%=      5-min Rain = 0
KLA1 251436Z 02004KT 16/16 A3018 RMK A01 T01630164  RH  100%=      5-min Rain = 0
KLA1 251437Z 02003KT 16/16 A3018 RMK A01 T01640164  RH  100%=      5-min Rain = 0
KLA1 251438Z 03003KT 16/16 A3018 RMK A01 T01640164  RH  100%=      5-min Rain = 0
KLA1 251439Z 02002KT 17/17 A3018 RMK A01 T01650165  RH  100%=      5-min Rain = 0
KLA1 251440Z 01003KT 17/17 A3018 RMK A01 T01660166  RH  100%=      5-min Rain = 0
KLA1 251441Z 02007KT 17/17 A3018 RMK A01 T01660166  RH  100%=      5-min Rain = 0
KLA1 251442Z 36006KT 17/17 A3018 RMK A01 T01650165  RH  100%=      5-min Rain = 0
KLA1 251443Z 02003KT 17/16 A3018 RMK A01 T01650163  RH  099%=      5-min Rain = 0
KLA1 251444Z 03003KT 17/16 A3018 RMK A01 T01670163  RH  098%=      5-min Rain = 0
KLA1 251445Z 00005KT 17/16 A3018 RMK A01 T01680160  RH  095%=      5-min Rain = 0
KLA1 251446Z 00005KT 17/16 A3018 RMK A01 T01690157  RH  093%=      5-min Rain = 0
KLA1 251447Z 01005KT 17/16 A3019 RMK A01 T01710159  RH  093%=      5-min Rain = 0
KLA1 251448Z 00006KT 17/16 A3019 RMK A01 T01740159  RH  091%=      5-min Rain = 0
KLA1 251449Z 35007KT 18/15 A3019 RMK A01 T01750154  RH  088%=      5-min Rain = 0
KLA1 251450Z 35008KT 18/15 A3018 RMK A01 T01760152  RH  086%=      5-min Rain = 0
KLA1 251451Z 34008KT 18/15 A3019 RMK A01 T01770149  RH  084%=      5-min Rain = 0
KLA1 251452Z 34009KT 18/15 A3019 RMK A01 T01780147  RH  082%=      5-min Rain = 0
KLA1 251453Z 35008KT 18/15 A3019 RMK A01 T01790149  RH  083%=      5-min Rain = 0
KLA1 251454Z 34008KT 18/15 A3019 RMK A01 T01800147  RH  081%=      5-min Rain = 0
KLA1 251455Z 36008KT 18/15 A3019 RMK A01 T01810149  RH  082%=      5-min Rain = 0
KLA1 251456Z 01005KT 18/15 A3019 RMK A01 T01820151  RH  082%=      5-min Rain = 0
KLA1 251457Z 01005KT 18/15 A3019 RMK A01 T01840151  RH  081%=      5-min Rain = 0
KLA1 251458Z 01007KT 18/15 A3019 RMK A01 T01840149  RH  080%=      5-min Rain = 0
KLA1 251459Z 00005KT 18/15 A3019 RMK A01 T01840148  RH  080%=      5-min Rain = 0
KLA1 251500Z 01004KT 18/15 A3019 RMK A01 T01840149  RH  080%=      5-min Rain = 0
KLA1 251501Z 01005KT 18/15 A3019 RMK A01 T01840147  RH  079%=      5-min Rain = 0
KLA1 251502Z 35005KT 19/15 A3019 RMK A01 T01850145  RH  078%=      5-min Rain = 0
KLA1 251503Z 32006KT 19/15 A3019 RMK A01 T01850145  RH  078%=      5-min Rain = 0
KLA1 251504Z 00004KT 19/15 A3019 RMK A01 T01860147  RH  078%=      5-min Rain = 0
KLA1 251505Z 02005KT 19/15 A3019 RMK A01 T01880147  RH  077%=      5-min Rain = 0
KLA1 251506Z 03005KT 19/15 A3019 RMK A01 T01880146  RH  076%=      5-min Rain = 0
KLA1 251507Z 35004KT 19/15 A3019 RMK A01 T01890146  RH  076%=      5-min Rain = 0
KLA1 251508Z 01004KT 19/15 A3019 RMK A01 T01900148  RH  077%=      5-min Rain = 0
KLA1 251509Z 04006KT 19/15 A3019 RMK A01 T01910146  RH  075%=      5-min Rain = 0
KLA1 251510Z 03004KT 19/15 A3019 RMK A01 T01910147  RH  075%=      5-min Rain = 0
KLA1 251511Z 03004KT 19/15 A3019 RMK A01 T01910145  RH  074%=      5-min Rain = 0
KLA1 251512Z 04004KT 19/15 A3019 RMK A01 T01910146  RH  075%=      5-min Rain = 0
KLA1 251513Z 03007KT 19/15 A3019 RMK A01 T01910145  RH  075%=      5-min Rain = 0
KLA1 251514Z 02005KT 19/15 A3019 RMK A01 T01920145  RH  074%=      5-min Rain = 0
KLA1 251515Z 01003KT 19/14 A3019 RMK A01 T01920143  RH  073%=      5-min Rain = 0
KLA1 251516Z 04002KT 19/14 A3019 RMK A01 T01910141  RH  073%=      5-min Rain = 0
KLA1 251517Z 07003KT 19/14 A3019 RMK A01 T01910144  RH  074%=      5-min Rain = 0
KLA1 251518Z 08003KT 19/15 A3019 RMK A01 T01920145  RH  074%=      5-min Rain = 0
KLA1 251519Z 03005KT 19/15 A3019 RMK A01 T01940147  RH  074%=      5-min Rain = 0
KLA1 251520Z 02005KT 19/14 A3019 RMK A01 T01940144  RH  073%=      5-min Rain = 0
KLA1 251521Z 02004KT 20/14 A3019 RMK A01 T01950144  RH  072%=      5-min Rain = 0
KLA1 251522Z 02003KT 19/14 A3019 RMK A01 T01930143  RH  072%=      5-min Rain = 0
KLA1 251523Z 02003KT 19/14 A3019 RMK A01 T01930144  RH  073%=      5-min Rain = 0
KLA1 251524Z 34006KT 19/15 A3019 RMK A01 T01940145  RH  073%=      5-min Rain = 0
KLA1 251525Z 00005KT 20/14 A3019 RMK A01 T01950144  RH  072%=      5-min Rain = 0
KLA1 251526Z 03004KT 20/15 A3019 RMK A01 T01960145  RH  072%=      5-min Rain = 0
KLA1 251527Z 02004KT 20/14 A3019 RMK A01 T01980143  RH  071%=      5-min Rain = 0
KLA1 251528Z 03004KT 20/14 A3019 RMK A01 T01980142  RH  070%=      5-min Rain = 0
KLA1 251529Z 02005KT 20/14 A3019 RMK A01 T01980142  RH  070%=      5-min Rain = 0
KLA1 251530Z 34006KT 20/15 A3019 RMK A01 T01980145  RH  071%=      5-min Rain = 0
KLA1 251531Z 34004KT 20/14 A3019 RMK A01 T01990144  RH  071%=      5-min Rain = 0
KLA1 251532Z 01004KT 20/15 A3019 RMK A01 T01980146  RH  072%=      5-min Rain = 0
KLA1 251533Z 00003KT 20/15 A3019 RMK A01 T01990145  RH  071%=      5-min Rain = 0
KLA1 251534Z 34004KT 20/15 A3019 RMK A01 T02000146  RH  071%=      5-min Rain = 0
KLA1 251535Z 34004KT 20/15 A3019 RMK A01 T02010146  RH  071%=      5-min Rain = 0
KLA1 251536Z 35007KT 20/15 A3019 RMK A01 T02020146  RH  070%=      5-min Rain = 0
KLA1 251537Z 35008KT 20/14 A3019 RMK A01 T02020143  RH  068%=      5-min Rain = 0
KLA1 251538Z 35007KT 20/14 A3019 RMK A01 T02020142  RH  068%=      5-min Rain = 0
KLA1 251539Z 34005KT 20/14 A3019 RMK A01 T02020143  RH  069%=      5-min Rain = 0
KLA1 251540Z 35007KT 20/14 A302 RMK A01 T02010144  RH  070%=      5-min Rain = 0
KLA1 251541Z 33005KT 20/14 A302 RMK A01 T02010142  RH  069%=      5-min Rain = 0
KLA1 251542Z 32005KT 20/14 A302 RMK A01 T02010144  RH  069%=      5-min Rain = 0
KLA1 251543Z 35003KT 20/14 A302 RMK A01 T02020140  RH  067%=      5-min Rain = 0
KLA1 251544Z 35003KT 20/14 A302 RMK A01 T02030144  RH  069%=      5-min Rain = 0
KLA1 251545Z 34006KT 20/14 A3019 RMK A01 T02040142  RH  067%=      5-min Rain = 0
KLA1 251546Z 00007KT 21/14 A302 RMK A01 T02050142  RH  067%=      5-min Rain = 0
KLA1 251547Z 00005KT 21/14 A302 RMK A01 T02050141  RH  067%=      5-min Rain = 0
KLA1 251548Z 01003KT 21/14 A302 RMK A01 T02050138  RH  065%=      5-min Rain = 0
KLA1 251549Z 01004KT 20/14 A302 RMK A01 T02040140  RH  067%=      5-min Rain = 0
KLA1 251550Z 01004KT 20/14 A302 RMK A01 T02040141  RH  067%=      5-min Rain = 0
KLA1 251551Z 35003KT 20/14 A302 RMK A01 T02040142  RH  067%=      5-min Rain = 0
KLA1 251552Z 01003KT 21/14 A302 RMK A01 T02050144  RH  068%=      5-min Rain = 0
KLA1 251553Z 36004KT 21/14 A302 RMK A01 T02070144  RH  067%=      5-min Rain = 0
KLA1 251554Z 34003KT 21/14 A302 RMK A01 T02090143  RH  066%=      5-min Rain = 0
KLA1 251555Z 32005KT 21/14 A302 RMK A01 T02100142  RH  065%=      5-min Rain = 0
KLA1 251556Z 31003KT 21/14 A302 RMK A01 T02100140  RH  064%=      5-min Rain = 0
KLA1 251557Z 28004KT 21/14 A302 RMK A01 T02090139  RH  064%=      5-min Rain = 0
KLA1 251558Z 30003KT 21/14 A302 RMK A01 T02080141  RH  065%=      5-min Rain = 0
KLA1 251559Z 01003KT 21/14 A302 RMK A01 T02090142  RH  066%=      5-min Rain = 0
KLA1 251600Z 02002KT 21/14 A302 RMK A01 T02100141  RH  065%=      5-min Rain = 0
KLA1 251601Z 02006KT 21/14 A302 RMK A01 T02100137  RH  063%=      5-min Rain = 0
KLA1 251602Z 00005KT 21/14 A302 RMK A01 T02090136  RH  063%=      5-min Rain = 0
KLA1 251603Z 03003KT 21/14 A302 RMK A01 T02090137  RH  063%=      5-min Rain = 0
KLA1 251604Z 34001KT 21/14 A302 RMK A01 T02100139  RH  064%=      5-min Rain = 0
KLA1 251605Z 32002KT 21/14 A302 RMK A01 T02110138  RH  063%=      5-min Rain = 0
KLA1 251606Z 32003KT 21/14 A302 RMK A01 T02110140  RH  064%=      5-min Rain = 0
KLA1 251607Z 33003KT 21/14 A302 RMK A01 T02120140  RH  063%=      5-min Rain = 0
KLA1 251608Z 01005KT 21/14 A302 RMK A01 T02130139  RH  063%=      5-min Rain = 0
KLA1 251609Z 00008KT 21/14 A302 RMK A01 T02130137  RH  062%=      5-min Rain = 0
KLA1 251610Z 00009KT 21/14 A302 RMK A01 T02130135  RH  061%=      5-min Rain = 0
KLA1 251611Z 00009KT 21/13 A302 RMK A01 T02130134  RH  061%=      5-min Rain = 0
KLA1 251612Z 01008KT 21/14 A302 RMK A01 T02130136  RH  062%=      5-min Rain = 0
KLA1 251613Z 01006KT 21/14 A302 RMK A01 T02120138  RH  062%=      5-min Rain = 0
KLA1 251614Z 02003KT 21/14 A302 RMK A01 T02120140  RH  063%=      5-min Rain = 0
KLA1 251615Z 00006KT 21/14 A302 RMK A01 T02130143  RH  064%=      5-min Rain = 0
KLA1 251616Z 01005KT 21/14 A302 RMK A01 T02140137  RH  061%=      5-min Rain = 0
KLA1 251617Z 01005KT 22/14 A302 RMK A01 T02150140  RH  062%=      5-min Rain = 0
KLA1 251618Z 04005KT 22/14 A302 RMK A01 T02160138  RH  061%=      5-min Rain = 0
KLA1 251619Z 01003KT 21/14 A302 RMK A01 T02140138  RH  062%=      5-min Rain = 0
KLA1 251620Z 03003KT 21/14 A302 RMK A01 T02140140  RH  063%=      5-min Rain = 0
KLA1 251621Z 04003KT 21/14 A302 RMK A01 T02140140  RH  063%=      5-min Rain = 0
KLA1 251622Z 04001KT 21/14 A302 RMK A01 T02140136  RH  061%=      5-min Rain = 0
KLA1 251623Z 34003KT 21/14 A302 RMK A01 T02140137  RH  061%=      5-min Rain = 0
KLA1 251624Z 03003KT 22/14 A302 RMK A01 T02160142  RH  063%=      5-min Rain = 0
KLA1 251625Z 03006KT 22/14 A302 RMK A01 T02180140  RH  061%=      5-min Rain = 0
KLA1 251626Z 03003KT 22/14 A302 RMK A01 T02190141  RH  061%=      5-min Rain = 0
KLA1 251627Z 03004KT 22/15 A302 RMK A01 T02210146  RH  062%=      5-min Rain = 0
KLA1 251628Z 03004KT 22/14 A302 RMK A01 T02230140  RH  059%=      5-min Rain = 0
KLA1 251629Z 02002KT 22/14 A302 RMK A01 T02230139  RH  059%=      5-min Rain = 0
KLA1 251630Z 35001KT 22/14 A302 RMK A01 T02220139  RH  059%=      5-min Rain = 0
KLA1 251631Z 04001KT 22/14 A302 RMK A01 T02220140  RH  060%=      5-min Rain = 0
KLA1 251632Z 30003KT 22/14 A302 RMK A01 T02220141  RH  060%=      5-min Rain = 0
KLA1 251633Z 28002KT 22/14 A302 RMK A01 T02240142  RH  060%=      5-min Rain = 0
KLA1 251634Z 36003KT 23/14 A302 RMK A01 T02250141  RH  059%=      5-min Rain = 0
KLA1 251635Z 01004KT 23/14 A302 RMK A01 T02260144  RH  060%=      5-min Rain = 0
KLA1 251636Z 01005KT 23/14 A302 RMK A01 T02270143  RH  059%=      5-min Rain = 0
KLA1 251637Z 02006KT 23/14 A302 RMK A01 T02260143  RH  059%=      5-min Rain = 0
KLA1 251638Z 05004KT 23/15 A302 RMK A01 T02260145  RH  060%=      5-min Rain = 0
KLA1 251639Z 05003KT 23/14 A302 RMK A01 T02250144  RH  060%=      5-min Rain = 0
KLA1 251640Z 09001KT 23/15 A302 RMK A01 T02250145  RH  061%=      5-min Rain = 0
KLA1 251641Z 35002KT 23/15 A302 RMK A01 T02250145  RH  060%=      5-min Rain = 0
KLA1 251642Z 01007KT 23/15 A302 RMK A01 T02260146  RH  060%=      5-min Rain = 0
KLA1 251643Z 01008KT 23/15 A302 RMK A01 T02270148  RH  061%=      5-min Rain = 0
KLA1 251644Z 36007KT 23/15 A302 RMK A01 T02260149  RH  061%=      5-min Rain = 0
KLA1 251645Z 36004KT 23/15 A302 RMK A01 T02260147  RH  061%=      5-min Rain = 0
KLA1 251646Z 34003KT 23/15 A302 RMK A01 T02260147  RH  061%=      5-min Rain = 0
KLA1 251647Z 01006KT 23/15 A302 RMK A01 T02260146  RH  060%=      5-min Rain = 0
KLA1 251648Z 01004KT 23/14 A302 RMK A01 T02250144  RH  060%=      5-min Rain = 0
KLA1 251649Z 36006KT 22/14 A302 RMK A01 T02240143  RH  060%=      5-min Rain = 0
KLA1 251650Z 35009KT 22/14 A302 RMK A01 T02240143  RH  060%=      5-min Rain = 0
KLA1 251651Z 35006KT 22/14 A302 RMK A01 T02240140  RH  059%=      5-min Rain = 0
KLA1 251652Z 36003KT 22/14 A302 RMK A01 T02220142  RH  060%=      5-min Rain = 0
KLA1 251653Z 01004KT 22/15 A302 RMK A01 T02220145  RH  062%=      5-min Rain = 0
KLA1 251654Z 36004KT 23/14 A302 RMK A01 T02250144  RH  060%=      5-min Rain = 0
KLA1 251655Z 36005KT 23/15 A302 RMK A01 T02280145  RH  059%=      5-min Rain = 0
KLA1 251656Z 03005KT 23/14 A302 RMK A01 T02290140  RH  057%=      5-min Rain = 0
KLA1 251657Z 05007KT 23/14 A302 RMK A01 T02300137  RH  056%=      5-min Rain = 0
KLA1 251658Z 04007KT 23/13 A302 RMK A01 T02310131  RH  053%=      5-min Rain = 0
KLA1 251659Z 04006KT 23/13 A302 RMK A01 T02300132  RH  054%=      5-min Rain = 0
KLA1 251700Z 05005KT 23/13 A302 RMK A01 T02300134  RH  055%=      5-min Rain = 0
KLA1 251701Z 06004KT 23/13 A302 RMK A01 T02300133  RH  054%=      5-min Rain = 0
KLA1 251702Z 02003KT 23/13 A302 RMK A01 T02280133  RH  055%=      5-min Rain = 0
KLA1 251703Z 04002KT 23/14 A302 RMK A01 T02270137  RH  057%=      5-min Rain = 0
KLA1 251704Z 06003KT 23/14 A302 RMK A01 T02280137  RH  057%=      5-min Rain = 0
KLA1 251705Z 03003KT 23/14 A302 RMK A01 T02280140  RH  057%=      5-min Rain = 0
KLA1 251706Z 01005KT 23/14 A302 RMK A01 T02280143  RH  059%=      5-min Rain = 0
KLA1 251707Z 00007KT 23/15 A302 RMK A01 T02300145  RH  059%=      5-min Rain = 0
KLA1 251708Z 36007KT 23/15 A302 RMK A01 T02310145  RH  059%=      5-min Rain = 0
KLA1 251709Z 01008KT 23/15 A302 RMK A01 T02310146  RH  059%=      5-min Rain = 0
KLA1 251710Z 01009KT 23/15 A302 RMK A01 T02310145  RH  058%=      5-min Rain = 0
KLA1 251711Z 02004KT 23/14 A302 RMK A01 T02290141  RH  058%=      5-min Rain = 0
KLA1 251712Z 02004KT 23/14 A302 RMK A01 T02280143  RH  059%=      5-min Rain = 0
KLA1 251713Z 03002KT 23/14 A302 RMK A01 T02280144  RH  059%=      5-min Rain = 0
KLA1 251714Z 02003KT 23/15 A302 RMK A01 T02290146  RH  059%=      5-min Rain = 0
KLA1 251715Z 04005KT 23/15 A302 RMK A01 T02320148  RH  059%=      5-min Rain = 0
KLA1 251716Z 04003KT 23/15 A302 RMK A01 T02340149  RH  059%=      5-min Rain = 0
KLA1 251717Z 03005KT 24/15 A302 RMK A01 T02360148  RH  058%=      5-min Rain = 0
KLA1 251718Z 01005KT 24/15 A302 RMK A01 T02360145  RH  057%=      5-min Rain = 0
KLA1 251719Z 34007KT 23/14 A302 RMK A01 T02330143  RH  057%=      5-min Rain = 0
KLA1 251720Z 36007KT 23/14 A302 RMK A01 T02320143  RH  057%=      5-min Rain = 0
KLA1 251721Z 01006KT 23/14 A3019 RMK A01 T02320144  RH  058%=      5-min Rain = 0
KLA1 251722Z 03006KT 23/15 A302 RMK A01 T02340145  RH  058%=      5-min Rain = 0
KLA1 251723Z 01005KT 24/14 A302 RMK A01 T02350142  RH  056%=      5-min Rain = 0
KLA1 251724Z 35004KT 24/14 A302 RMK A01 T02350142  RH  056%=      5-min Rain = 0
KLA1 251725Z 33002G7KT 24/14 A3019 RMK A01 T02350141  RH  056%=      5-min Rain = 0
KLA1 251726Z 03009KT 24/14 A3019 RMK A01 T02360142  RH  056%=      5-min Rain = 0
KLA1 251727Z 04004KT 24/14 A3019 RMK A01 T02390141  RH  054%=      5-min Rain = 0
KLA1 251728Z 00005KT 24/14 A3019 RMK A01 T02400141  RH  054%=      5-min Rain = 0
KLA1 251729Z 35007KT 24/14 A3019 RMK A01 T02410141  RH  054%=      5-min Rain = 0
KLA1 251730Z 34005KT 24/14 A3019 RMK A01 T02390139  RH  053%=      5-min Rain = 0
KLA1 251731Z 36007KT 24/14 A3019 RMK A01 T02370139  RH  054%=      5-min Rain = 0
KLA1 251732Z 00007KT 24/14 A3019 RMK A01 T02380136  RH  053%=      5-min Rain = 0
KLA1 251733Z 04003KT 24/14 A3019 RMK A01 T02380137  RH  053%=      5-min Rain = 0
KLA1 251734Z 05007KT 24/14 A3019 RMK A01 T02390137  RH  053%=      5-min Rain = 0
KLA1 251735Z 07006KT 24/13 A3019 RMK A01 T02410134  RH  051%=      5-min Rain = 0
KLA1 251736Z 06006KT 24/13 A3019 RMK A01 T02410133  RH  051%=      5-min Rain = 0
KLA1 251737Z 05006KT 24/14 A3019 RMK A01 T02410137  RH  052%=      5-min Rain = 0
KLA1 251738Z 05008KT 24/14 A3019 RMK A01 T02410138  RH  052%=      5-min Rain = 0
KLA1 251739Z 05008KT 24/14 A3019 RMK A01 T02410135  RH  051%=      5-min Rain = 0
KLA1 251740Z 05008KT 24/14 A3019 RMK A01 T02410136  RH  052%=      5-min Rain = 0
KLA1 251741Z 04006KT 24/13 A3019 RMK A01 T02410133  RH  051%=      5-min Rain = 0
KLA1 251742Z 07005KT 24/13 A3019 RMK A01 T02400134  RH  052%=      5-min Rain = 0
KLA1 251743Z 03002KT 24/13 A3019 RMK A01 T02380133  RH  052%=      5-min Rain = 0
KLA1 251744Z 36003KT 24/13 A3019 RMK A01 T02370134  RH  052%=      5-min Rain = 0
KLA1 251745Z 02007KT 24/14 A3019 RMK A01 T02390135  RH  052%=      5-min Rain = 0
KLA1 251746Z 03006G11KT 24/13 A3019 RMK A01 T02430131  RH  050%=      5-min Rain = 0
KLA1 251747Z 03009KT 25/13 A3019 RMK A01 T02450133  RH  050%=      5-min Rain = 0
KLA1 251748Z 03007KT 25/13 A3019 RMK A01 T02460132  RH  049%=      5-min Rain = 0
KLA1 251749Z 04004KT 24/13 A3019 RMK A01 T02430132  RH  050%=      5-min Rain = 0
KLA1 251750Z 02002KT 24/13 A3019 RMK A01 T02400133  RH  051%=      5-min Rain = 0
KLA1 251751Z 04002KT 24/13 A3019 RMK A01 T02390133  RH  051%=      5-min Rain = 0
KLA1 251752Z 03004KT 24/13 A3019 RMK A01 T02400132  RH  051%=      5-min Rain = 0
KLA1 251753Z 04004KT 24/13 A3019 RMK A01 T02410131  RH  050%=      5-min Rain = 0
KLA1 251754Z 05003G8KT 24/13 A3019 RMK A01 T02410129  RH  049%=      5-min Rain = 0
KLA1 251755Z 04006KT 24/13 A3019 RMK A01 T02430129  RH  049%=      5-min Rain = 0
KLA1 251756Z 05005KT 24/13 A3019 RMK A01 T02440125  RH  047%=      5-min Rain = 0
KLA1 251757Z 07005KT 24/13 A3019 RMK A01 T02440125  RH  047%=      5-min Rain = 0
KLA1 251758Z 07006KT 24/13 A3019 RMK A01 T02430128  RH  049%=      5-min Rain = 0
KLA1 251759Z 07004KT 24/13 A3019 RMK A01 T02420129  RH  049%=      5-min Rain = 0
KLA1 251800Z 04005KT 24/13 A3019 RMK A01 T02420130  RH  050%=      5-min Rain = 0
KLA1 251801Z 01006KT 24/13 A3019 RMK A01 T02440127  RH  048%=      5-min Rain = 0
KLA1 251802Z 02005KT 25/13 A3019 RMK A01 T02460126  RH  047%=      5-min Rain = 0
KLA1 251803Z 05005KT 25/13 A3019 RMK A01 T02470127  RH  047%=      5-min Rain = 0
KLA1 251804Z 04005KT 25/13 A3018 RMK A01 T02470127  RH  047%=      5-min Rain = 0
KLA1 251805Z 05006KT 25/13 A3019 RMK A01 T02470127  RH  047%=      5-min Rain = 0
KLA1 251806Z 06006KT 25/12 A3018 RMK A01 T02480124  RH  046%=      5-min Rain = 0
KLA1 251807Z 05006KT 25/13 A3018 RMK A01 T02480125  RH  046%=      5-min Rain = 0
KLA1 251808Z 06006KT 25/13 A3018 RMK A01 T02490125  RH  046%=      5-min Rain = 0
KLA1 251809Z 07005KT 25/12 A3018 RMK A01 T02490124  RH  046%=      5-min Rain = 0
KLA1 251810Z 06004KT 25/13 A3018 RMK A01 T02490129  RH  047%=      5-min Rain = 0
KLA1 251811Z 08007KT 25/13 A3018 RMK A01 T02500128  RH  047%=      5-min Rain = 0
KLA1 251812Z 05008KT 25/13 A3018 RMK A01 T02500129  RH  047%=      5-min Rain = 0
KLA1 251813Z 04008KT 25/13 A3018 RMK A01 T02520128  RH  046%=      5-min Rain = 0
KLA1 251814Z 03008KT 25/13 A3018 RMK A01 T02530126  RH  045%=      5-min Rain = 0
KLA1 251815Z 04006KT 25/13 A3018 RMK A01 T02530129  RH  046%=      5-min Rain = 0
KLA1 251816Z 03004KT 25/13 A3018 RMK A01 T02530131  RH  047%=      5-min Rain = 0
KLA1 251817Z 04004KT 25/13 A3018 RMK A01 T02530130  RH  046%=      5-min Rain = 0
KLA1 251818Z 04005KT 25/13 A3018 RMK A01 T02530132  RH  047%=      5-min Rain = 0
KLA1 251819Z 04006KT 25/13 A3018 RMK A01 T02540127  RH  045%=      5-min Rain = 0
KLA1 251820Z 06007KT 26/13 A3018 RMK A01 T02550127  RH  045%=      5-min Rain = 0
KLA1 251821Z 10005KT 25/13 A3018 RMK A01 T02540128  RH  046%=      5-min Rain = 0
KLA1 251822Z 10003KT 25/13 A3018 RMK A01 T02520127  RH  046%=      5-min Rain = 0
KLA1 251823Z 04003KT 25/13 A3018 RMK A01 T02520125  RH  045%=      5-min Rain = 0
KLA1 251824Z 31004KT 25/13 A3018 RMK A01 T02520128  RH  046%=      5-min Rain = 0
KLA1 251825Z 03005KT 26/13 A3018 RMK A01 T02560128  RH  045%=      5-min Rain = 0
KLA1 251826Z 04004KT 26/13 A3018 RMK A01 T02570127  RH  044%=      5-min Rain = 0
KLA1 251827Z 06004KT 26/13 A3018 RMK A01 T02560125  RH  044%=      5-min Rain = 0
KLA1 251828Z 06002KT 25/12 A3018 RMK A01 T02540122  RH  044%=      5-min Rain = 0
KLA1 251829Z 01004KT 25/13 A3018 RMK A01 T02530127  RH  045%=      5-min Rain = 0
KLA1 251830Z 01008KT 26/13 A3018 RMK A01 T02550129  RH  046%=      5-min Rain = 0
KLA1 251831Z 02004KT 26/13 A3018 RMK A01 T02560128  RH  045%=      5-min Rain = 0
KLA1 251832Z 02002KT 26/13 A3017 RMK A01 T02560128  RH  045%=      5-min Rain = 0
KLA1 251833Z 02003KT 26/13 A3017 RMK A01 T02560127  RH  045%=      5-min Rain = 0
KLA1 251834Z 04007KT 26/13 A3017 RMK A01 T02570131  RH  045%=      5-min Rain = 0
KLA1 251835Z 03006KT 26/13 A3017 RMK A01 T02590127  RH  044%=      5-min Rain = 0
KLA1 251836Z 00004KT 26/13 A3017 RMK A01 T02590129  RH  044%=      5-min Rain = 0
KLA1 251837Z 01011KT 26/13 A3017 RMK A01 T02600128  RH  044%=      5-min Rain = 0
KLA1 251838Z 01007KT 26/12 A3017 RMK A01 T02620121  RH  041%=      5-min Rain = 0
KLA1 251839Z 02007KT 27/12 A3017 RMK A01 T02650120  RH  040%=      5-min Rain = 0
KLA1 251840Z 02006KT 27/12 A3017 RMK A01 T02650123  RH  041%=      5-min Rain = 0
KLA1 251841Z 05007KT 27/12 A3017 RMK A01 T02650120  RH  041%=      5-min Rain = 0
KLA1 251842Z 04007KT 26/12 A3017 RMK A01 T02630123  RH  042%=      5-min Rain = 0
KLA1 251843Z 05007KT 26/12 A3017 RMK A01 T02610122  RH  042%=      5-min Rain = 0
KLA1 251844Z 06006KT 26/13 A3017 RMK A01 T02590126  RH  044%=      5-min Rain = 0
KLA1 251845Z 05007KT 26/13 A3017 RMK A01 T02590125  RH  043%=      5-min Rain = 0
KLA1 251846Z 03007KT 26/12 A3017 RMK A01 T02580123  RH  043%=      5-min Rain = 0
KLA1 251847Z 04004G10KT 26/13 A3017 RMK A01 T02580126  RH  044%=      5-min Rain = 0
KLA1 251848Z 02003KT 26/13 A3017 RMK A01 T02590125  RH  043%=      5-min Rain = 0
KLA1 251849Z 03009KT 26/12 A3017 RMK A01 T02610124  RH  043%=      5-min Rain = 0
KLA1 251850Z 02009KT 26/12 A3017 RMK A01 T02640122  RH  041%=      5-min Rain = 0
KLA1 251851Z 02004KT 26/12 A3017 RMK A01 T02640121  RH  041%=      5-min Rain = 0
KLA1 251852Z 02004KT 26/12 A3017 RMK A01 T02640123  RH  042%=      5-min Rain = 0
KLA1 251853Z 04003KT 26/12 A3017 RMK A01 T02640120  RH  041%=      5-min Rain = 0
KLA1 251854Z 09002KT 26/12 A3017 RMK A01 T02640119  RH  040%=      5-min Rain = 0
KLA1 251855Z 08002KT 26/12 A3017 RMK A01 T02620121  RH  041%=      5-min Rain = 0
KLA1 251856Z 13002KT 26/12 A3017 RMK A01 T02630123  RH  042%=      5-min Rain = 0
KLA1 251857Z 08007G12KT 26/12 A3017 RMK A01 T02640123  RH  041%=      5-min Rain = 0
KLA1 251858Z 05005G10KT 27/13 A3017 RMK A01 T02680127  RH  042%=      5-min Rain = 0
KLA1 251859Z 05006KT 27/13 A3017 RMK A01 T02690128  RH  042%=      5-min Rain = 0
KLA1 251900Z 03004KT 27/13 A3017 RMK A01 T02700133  RH  043%=      5-min Rain = 0
KLA1 251901Z 02001KT 27/13 A3017 RMK A01 T02720134  RH  043%=      5-min Rain = 0
KLA1 251902Z 05007KT 27/13 A3017 RMK A01 T02740131  RH  041%=      5-min Rain = 0
KLA1 251903Z 06005KT 28/12 A3017 RMK A01 T02750120  RH  038%=      5-min Rain = 0
KLA1 251904Z 03009KT 27/12 A3017 RMK A01 T02740119  RH  038%=      5-min Rain = 0
KLA1 251905Z 06006KT 27/12 A3017 RMK A01 T02720115  RH  037%=      5-min Rain = 0
KLA1 251906Z 03008KT 27/11 A3017 RMK A01 T02700113  RH  037%=      5-min Rain = 0
KLA1 251907Z 03006KT 27/11 A3017 RMK A01 T02700110  RH  037%=      5-min Rain = 0
KLA1 251908Z 04008KT 27/11 A3017 RMK A01 T02680114  RH  038%=      5-min Rain = 0
KLA1 251909Z 05008KT 27/12 A3017 RMK A01 T02670116  RH  039%=      5-min Rain = 0
KLA1 251910Z 04006KT 26/11 A3016 RMK A01 T02640113  RH  039%=      5-min Rain = 0
KLA1 251911Z 04004KT 26/12 A3016 RMK A01 T02620120  RH  041%=      5-min Rain = 0
KLA1 251912Z 04006KT 26/12 A3016 RMK A01 T02640118  RH  040%=      5-min Rain = 0
KLA1 251913Z 05008KT 27/12 A3016 RMK A01 T02680115  RH  038%=      5-min Rain = 0
KLA1 251914Z 04005KT 27/11 A3016 RMK A01 T02670110  RH  037%=      5-min Rain = 0
KLA1 251915Z 05007KT 27/11 A3016 RMK A01 T02660109  RH  037%=      5-min Rain = 0
KLA1 251916Z 03008KT 27/11 A3016 RMK A01 T02660111  RH  038%=      5-min Rain = 0
KLA1 251917Z 02005KT 27/11 A3016 RMK A01 T02660112  RH  038%=      5-min Rain = 0
KLA1 251918Z 02004KT 27/12 A3016 RMK A01 T02660115  RH  039%=      5-min Rain = 0
KLA1 251919Z 03006KT 27/12 A3016 RMK A01 T02650119  RH  040%=      5-min Rain = 0
KLA1 251920Z 04005KT 27/12 A3016 RMK A01 T02670117  RH  039%=      5-min Rain = 0
KLA1 251921Z 05004KT 27/12 A3016 RMK A01 T02680118  RH  039%=      5-min Rain = 0
KLA1 251922Z 09006KT 27/12 A3016 RMK A01 T02680115  RH  039%=      5-min Rain = 0
KLA1 251923Z 05006KT 27/12 A3016 RMK A01 T02700117  RH  038%=      5-min Rain = 0
KLA1 251924Z 04006KT 27/12 A3016 RMK A01 T02730117  RH  038%=      5-min Rain = 0
KLA1 251925Z 11001KT 27/11 A3016 RMK A01 T02710112  RH  037%=      5-min Rain = 0
KLA1 251926Z 03002KT 27/12 A3016 RMK A01 T02700117  RH  038%=      5-min Rain = 0
KLA1 251927Z 05007KT 27/12 A3016 RMK A01 T02720118  RH  038%=      5-min Rain = 0
KLA1 251928Z 07008KT 27/12 A3016 RMK A01 T02730120  RH  039%=      5-min Rain = 0
KLA1 251929Z 06008KT 27/12 A3016 RMK A01 T02730118  RH  038%=      5-min Rain = 0
KLA1 251930Z 08006KT 27/12 A3016 RMK A01 T02720119  RH  039%=      5-min Rain = 0
KLA1 251931Z 04007KT 27/12 A3016 RMK A01 T02730119  RH  038%=      5-min Rain = 0
KLA1 251932Z 07004KT 27/12 A3016 RMK A01 T02730117  RH  038%=      5-min Rain = 0
KLA1 251933Z 02003G9KT 27/13 A3015 RMK A01 T02730125  RH  040%=      5-min Rain = 0
KLA1 251934Z 08009G14KT 28/12 A3015 RMK A01 T02760115  RH  037%=      5-min Rain = 0
KLA1 251935Z 04010KT 28/11 A3016 RMK A01 T02760113  RH  036%=      5-min Rain = 0
KLA1 251936Z 07007KT 28/11 A3016 RMK A01 T02750108  RH  035%=      5-min Rain = 0
KLA1 251937Z 09007KT 28/10 A3016 RMK A01 T02750100  RH  033%=      5-min Rain = 0
KLA1 251938Z 10005KT 28/11 A3015 RMK A01 T02750106  RH  035%=      5-min Rain = 0
KLA1 251939Z 09007KT 28/11 A3015 RMK A01 T02760107  RH  035%=      5-min Rain = 0
KLA1 251940Z 09004KT 28/10 A3015 RMK A01 T02760101  RH  033%=      5-min Rain = 0
KLA1 251941Z 09005KT 28/10 A3015 RMK A01 T02760100  RH  033%=      5-min Rain = 0
KLA1 251942Z 03004KT 28/10 A3015 RMK A01 T02760099  RH  033%=      5-min Rain = 0
KLA1 251943Z 01007KT 28/11 A3015 RMK A01 T02750111  RH  036%=      5-min Rain = 0
KLA1 251944Z 02006KT 28/12 A3015 RMK A01 T02760117  RH  037%=      5-min Rain = 0
KLA1 251945Z 04009KT 28/11 A3015 RMK A01 T02770114  RH  036%=      5-min Rain = 0
KLA1 251946Z 04009KT 28/11 A3015 RMK A01 T02760110  RH  035%=      5-min Rain = 0
KLA1 251947Z 06008KT 28/11 A3015 RMK A01 T02750110  RH  036%=      5-min Rain = 0
KLA1 251948Z 07008KT 28/11 A3015 RMK A01 T02750108  RH  035%=      5-min Rain = 0
KLA1 251949Z 08007KT 27/11 A3015 RMK A01 T02740109  RH  036%=      5-min Rain = 0
KLA1 251950Z 03006KT 27/11 A3015 RMK A01 T02740114  RH  037%=      5-min Rain = 0
KLA1 251951Z 03003KT 27/11 A3015 RMK A01 T02730110  RH  036%=      5-min Rain = 0
KLA1 251952Z 07003KT 27/11 A3015 RMK A01 T02710109  RH  036%=      5-min Rain = 0
KLA1 251953Z 04007KT 27/11 A3015 RMK A01 T02700108  RH  036%=      5-min Rain = 0
KLA1 251954Z 02009KT 27/11 A3015 RMK A01 T02720111  RH  037%=      5-min Rain = 0
KLA1 251955Z 03010G15KT 28/11 A3015 RMK A01 T02750107  RH  035%=      5-min Rain = 0
KLA1 251956Z 03012KT 28/11 A3015 RMK A01 T02770109  RH  035%=      5-min Rain = 0
KLA1 251957Z 03009KT 28/11 A3015 RMK A01 T02780111  RH  035%=      5-min Rain = 0
KLA1 251958Z 02011KT 28/11 A3015 RMK A01 T02790105  RH  034%=      5-min Rain = 0
KLA1 251959Z 01010KT 28/10 A3015 RMK A01 T02780102  RH  033%=      5-min Rain = 0
KLA1 252000Z 04007KT 28/11 A3015 RMK A01 T02770106  RH  034%=      5-min Rain = 0
KLA1 252001Z 04006KT 28/11 A3015 RMK A01 T02770107  RH  035%=      5-min Rain = 0
KLA1 252002Z 07006G12KT 28/11 A3015 RMK A01 T02760105  RH  034%=      5-min Rain = 0
KLA1 252003Z 05009KT 28/10 A3015 RMK A01 T02760104  RH  034%=      5-min Rain = 0
KLA1 252004Z 03009G14KT 28/10 A3015 RMK A01 T02760102  RH  034%=      5-min Rain = 0
KLA1 252005Z 04010KT 28/11 A3015 RMK A01 T02770105  RH  034%=      5-min Rain = 0
KLA1 252006Z 02010KT 28/10 A3015 RMK A01 T02790104  RH  034%=      5-min Rain = 0
KLA1 252007Z 01012KT 28/10 A3015 RMK A01 T02800103  RH  033%=      5-min Rain = 0
KLA1 252008Z 02008KT 28/10 A3015 RMK A01 T02770100  RH  033%=      5-min Rain = 0
KLA1 252009Z 05005KT 28/10 A3015 RMK A01 T02760104  RH  034%=      5-min Rain = 0
KLA1 252010Z 09005KT 28/10 A3015 RMK A01 T02770101  RH  033%=      5-min Rain = 0
KLA1 252011Z 08003KT 28/10 A3014 RMK A01 T02780097  RH  032%=      5-min Rain = 0
KLA1 252012Z 08003KT 28/10 A3014 RMK A01 T02790099  RH  032%=      5-min Rain = 0
KLA1 252013Z 09007KT 28/09 A3014 RMK A01 T02800094  RH  031%=      5-min Rain = 0
KLA1 252014Z 05010KT 28/10 A3015 RMK A01 T02810095  RH  031%=      5-min Rain = 0
KLA1 252015Z 06006KT 28/10 A3015 RMK A01 T02800095  RH  031%=      5-min Rain = 0
KLA1 252016Z 08003KT 28/10 A3014 RMK A01 T02790095  RH  032%=      5-min Rain = 0
KLA1 252017Z 07006G11KT 28/10 A3014 RMK A01 T02780096  RH  032%=      5-min Rain = 0
KLA1 252018Z 07008KT 28/09 A3015 RMK A01 T02790093  RH  031%=      5-min Rain = 0
KLA1 252019Z 05006KT 28/09 A3015 RMK A01 T02810094  RH  031%=      5-min Rain = 0
KLA1 252020Z 07008KT 28/09 A3015 RMK A01 T02820092  RH  031%=      5-min Rain = 0
KLA1 252021Z 06005KT 28/10 A3014 RMK A01 T02810095  RH  031%=      5-min Rain = 0
KLA1 252022Z 04011KT 28/09 A3014 RMK A01 T02800085  RH  029%=      5-min Rain = 0
KLA1 252023Z 04012KT 28/08 A3014 RMK A01 T02800078  RH  028%=      5-min Rain = 0
KLA1 252024Z 04009G15KT 28/08 A3014 RMK A01 T02800075  RH  028%=      5-min Rain = 0
KLA1 252025Z 02012KT 28/08 A3014 RMK A01 T02790078  RH  028%=      5-min Rain = 0
KLA1 252026Z 04010KT 28/08 A3014 RMK A01 T02790081  RH  029%=      5-min Rain = 0
KLA1 252027Z 03009G15KT 28/08 A3014 RMK A01 T02780077  RH  028%=      5-min Rain = 0
KLA1 252028Z 04010KT 28/08 A3014 RMK A01 T02780078  RH  028%=      5-min Rain = 0
KLA1 252029Z 03011KT 28/08 A3014 RMK A01 T02790078  RH  028%=      5-min Rain = 0
KLA1 252030Z 03010KT 28/07 A3014 RMK A01 T02810074  RH  027%=      5-min Rain = 0
KLA1 252031Z 03009KT 28/08 A3014 RMK A01 T02810075  RH  027%=      5-min Rain = 0
KLA1 252032Z 02010KT 28/07 A3014 RMK A01 T02800071  RH  027%=      5-min Rain = 0
KLA1 252033Z 02010KT 28/07 A3014 RMK A01 T02760073  RH  028%=      5-min Rain = 0
KLA1 252034Z 02009KT 28/08 A3014 RMK A01 T02760081  RH  029%=      5-min Rain = 0
KLA1 252035Z 03008KT 28/07 A3014 RMK A01 T02770073  RH  028%=      5-min Rain = 0
KLA1 252036Z 05007KT 28/08 A3014 RMK A01 T02780079  RH  028%=      5-min Rain = 0
KLA1 252037Z 04005KT 28/09 A3014 RMK A01 T02780087  RH  030%=      5-min Rain = 0
KLA1 252038Z 02008G13KT 28/09 A3014 RMK A01 T02790088  RH  030%=      5-min Rain = 0
KLA1 252039Z 03010KT 28/08 A3014 RMK A01 T02800081  RH  029%=      5-min Rain = 0
KLA1 252040Z 04006KT 28/09 A3014 RMK A01 T02810087  RH  030%=      5-min Rain = 0
KLA1 252041Z 05007KT 28/08 A3014 RMK A01 T02830084  RH  029%=      5-min Rain = 0
KLA1 252042Z 05006KT 28/08 A3014 RMK A01 T02830077  RH  027%=      5-min Rain = 0
KLA1 252043Z 09006KT 28/08 A3014 RMK A01 T02830078  RH  028%=      5-min Rain = 0
KLA1 252044Z 07006KT 28/08 A3014 RMK A01 T02820076  RH  027%=      5-min Rain = 0
KLA1 252045Z 03007KT 28/08 A3014 RMK A01 T02820078  RH  028%=      5-min Rain = 0
KLA1 252046Z 02012KT 29/08 A3014 RMK A01 T02850076  RH  027%=      5-min Rain = 0
KLA1 252047Z 02013KT 28/07 A3014 RMK A01 T02830067  RH  025%=      5-min Rain = 0
KLA1 252048Z 03011G16KT 28/07 A3014 RMK A01 T02810066  RH  026%=      5-min Rain = 0
KLA1 252049Z 04005KT 28/07 A3014 RMK A01 T02780065  RH  026%=      5-min Rain = 0
KLA1 252050Z 05006KT 28/07 A3014 RMK A01 T02770066  RH  026%=      5-min Rain = 0
KLA1 252051Z 04007KT 28/06 A3014 RMK A01 T02770060  RH  025%=      5-min Rain = 0
KLA1 252052Z 07008KT 28/06 A3014 RMK A01 T02760062  RH  026%=      5-min Rain = 0
KLA1 252053Z 07008KT 28/06 A3014 RMK A01 T02770063  RH  026%=      5-min Rain = 0
KLA1 252054Z 05008KT 28/06 A3014 RMK A01 T02800064  RH  025%=      5-min Rain = 0
KLA1 252055Z 07007KT 28/06 A3014 RMK A01 T02810060  RH  024%=      5-min Rain = 0
KLA1 252056Z 08009KT 28/06 A3014 RMK A01 T02810061  RH  025%=      5-min Rain = 0
KLA1 252057Z 07007KT 28/07 A3013 RMK A01 T02790066  RH  026%=      5-min Rain = 0
KLA1 252058Z 03011KT 28/07 A3013 RMK A01 T02780071  RH  027%=      5-min Rain = 0
KLA1 252059Z 04011KT 28/07 A3014 RMK A01 T02810073  RH  027%=      5-min Rain = 0
KLA1 252100Z 03007G12KT 28/08 A3014 RMK A01 T02820075  RH  027%=      5-min Rain = 0
KLA1 252101Z 03011KT 28/07 A3014 RMK A01 T02840074  RH  027%=      5-min Rain = 0
KLA1 252102Z 03011KT 28/07 A3014 RMK A01 T02830068  RH  026%=      5-min Rain = 0
KLA1 252103Z 03008KT 28/07 A3013 RMK A01 T02790069  RH  026%=      5-min Rain = 0
KLA1 252104Z 01005KT 28/07 A3013 RMK A01 T02780072  RH  027%=      5-min Rain = 0
KLA1 252105Z 04007KT 28/08 A3013 RMK A01 T02790078  RH  028%=      5-min Rain = 0
KLA1 252106Z 05007G12KT 28/07 A3013 RMK A01 T02800071  RH  027%=      5-min Rain = 0
KLA1 252107Z 06009KT 28/07 A3013 RMK A01 T02810073  RH  027%=      5-min Rain = 0
KLA1 252108Z 07011KT 28/07 A3013 RMK A01 T02810069  RH  026%=      5-min Rain = 0
KLA1 252109Z 08011KT 28/06 A3013 RMK A01 T02800057  RH  024%=      5-min Rain = 0
KLA1 252110Z 08011KT 28/06 A3013 RMK A01 T02790056  RH  024%=      5-min Rain = 0
KLA1 252111Z 09009KT 28/05 A3013 RMK A01 T02790054  RH  024%=      5-min Rain = 0
KLA1 252112Z 11010KT 28/05 A3013 RMK A01 T02800053  RH  024%=      5-min Rain = 0
KLA1 252113Z 10012KT 28/06 A3013 RMK A01 T02800057  RH  024%=      5-min Rain = 0
KLA1 252114Z 07009KT 28/07 A3013 RMK A01 T02790065  RH  026%=      5-min Rain = 0
KLA1 252115Z 10009G14KT 28/07 A3013 RMK A01 T02780069  RH  027%=      5-min Rain = 0
KLA1 252116Z 10010KT 28/07 A3013 RMK A01 T02770071  RH  027%=      5-min Rain = 0
KLA1 252117Z 09011KT 28/07 A3013 RMK A01 T02770073  RH  027%=      5-min Rain = 0
KLA1 252118Z 11006KT 28/07 A3013 RMK A01 T02770073  RH  027%=      5-min Rain = 0
KLA1 252119Z 08007KT 28/07 A3013 RMK A01 T02760069  RH  027%=      5-min Rain = 0
KLA1 252120Z 08009KT 28/07 A3013 RMK A01 T02760068  RH  027%=      5-min Rain = 0
KLA1 252121Z 07007KT 28/07 A3013 RMK A01 T02760065  RH  026%=      5-min Rain = 0
KLA1 252122Z 07008KT 28/07 A3013 RMK A01 T02780067  RH  026%=      5-min Rain = 0
KLA1 252123Z 06011KT 28/07 A3013 RMK A01 T02790069  RH  026%=      5-min Rain = 0
KLA1 252124Z 06008KT 28/07 A3013 RMK A01 T02810067  RH  026%=      5-min Rain = 0
KLA1 252125Z 05009KT 28/07 A3013 RMK A01 T02820069  RH  026%=      5-min Rain = 0
KLA1 252126Z 03009G14KT 28/07 A3013 RMK A01 T02830069  RH  026%=      5-min Rain = 0
KLA1 252127Z 02010KT 28/07 A3013 RMK A01 T02820068  RH  026%=      5-min Rain = 0
KLA1 252128Z 05008KT 28/07 A3013 RMK A01 T02790068  RH  026%=      5-min Rain = 0
KLA1 252129Z 06008KT 28/06 A3013 RMK A01 T02790064  RH  026%=      5-min Rain = 0
KLA1 252130Z 04006KT 28/06 A3013 RMK A01 T02790059  RH  025%=      5-min Rain = 0
KLA1 252131Z 04004KT 28/06 A3012 RMK A01 T02770056  RH  024%=      5-min Rain = 0
KLA1 252132Z 04007KT 28/06 A3012 RMK A01 T02770063  RH  026%=      5-min Rain = 0
KLA1 252133Z 01012KT 28/06 A3012 RMK A01 T02780060  RH  025%=      5-min Rain = 0
KLA1 252134Z 02011KT 28/06 A3012 RMK A01 T02790057  RH  024%=      5-min Rain = 0
KLA1 252135Z 05010KT 28/06 A3012 RMK A01 T02790061  RH  025%=      5-min Rain = 0
KLA1 252136Z 07010KT 28/06 A3013 RMK A01 T02810062  RH  025%=      5-min Rain = 0
KLA1 252137Z 07008KT 28/06 A3013 RMK A01 T02800058  RH  024%=      5-min Rain = 0
KLA1 252138Z 06006G11KT 28/06 A3013 RMK A01 T02790058  RH  025%=      5-min Rain = 0
KLA1 252139Z 08003KT 28/05 A3013 RMK A01 T02790054  RH  024%=      5-min Rain = 0
KLA1 252140Z 04009KT 28/06 A3013 RMK A01 T02790057  RH  024%=      5-min Rain = 0
KLA1 252141Z 05011KT 28/06 A3013 RMK A01 T02790057  RH  024%=      5-min Rain = 0
KLA1 252142Z 06008KT 28/06 A3013 RMK A01 T02780055  RH  024%=      5-min Rain = 0
KLA1 252143Z 03008KT 28/06 A3013 RMK A01 T02770057  RH  025%=      5-min Rain = 0
KLA1 252144Z 04008KT 28/06 A3013 RMK A01 T02780057  RH  024%=      5-min Rain = 0
KLA1 252145Z 05008KT 28/05 A3013 RMK A01 T02790051  RH  023%=      5-min Rain = 0
KLA1 252146Z 02006KT 28/05 A3013 RMK A01 T02780050  RH  023%=      5-min Rain = 0
KLA1 252147Z 02009KT 28/05 A3013 RMK A01 T02790053  RH  024%=      5-min Rain = 0
KLA1 252148Z 04008KT 28/06 A3013 RMK A01 T02800061  RH  025%=      5-min Rain = 0
KLA1 252149Z 06005KT 28/06 A3013 RMK A01 T02790063  RH  025%=      5-min Rain = 0
KLA1 252150Z 08007G14KT 28/07 A3013 RMK A01 T02780065  RH  026%=      5-min Rain = 0
KLA1 252151Z 09011KT 28/07 A3012 RMK A01 T02780068  RH  026%=      5-min Rain = 0
KLA1 252152Z 07011KT 28/07 A3013 RMK A01 T02800069  RH  026%=      5-min Rain = 0
KLA1 252153Z 08008KT 28/07 A3012 RMK A01 T02810070  RH  026%=      5-min Rain = 0
KLA1 252154Z 08010KT 28/07 A3012 RMK A01 T02810066  RH  026%=      5-min Rain = 0
KLA1 252155Z 07008KT 28/07 A3012 RMK A01 T02780065  RH  026%=      5-min Rain = 0
KLA1 252156Z 05008KT 28/06 A3013 RMK A01 T02790061  RH  025%=      5-min Rain = 0
KLA1 252157Z 03004KT 28/06 A3012 RMK A01 T02800058  RH  024%=      5-min Rain = 0
KLA1 252158Z 03008KT 28/06 A3012 RMK A01 T02810062  RH  025%=      5-min Rain = 0
KLA1 252159Z 05006KT 28/06 A3013 RMK A01 T02820063  RH  025%=      5-min Rain = 0
KLA1 252200Z 08009KT 28/07 A3013 RMK A01 T02820065  RH  025%=      5-min Rain = 0
KLA1 252201Z 09007KT 28/07 A3012 RMK A01 T02810067  RH  026%=      5-min Rain = 0
KLA1 252202Z 07008KT 28/07 A3012 RMK A01 T02790068  RH  026%=      5-min Rain = 0
KLA1 252203Z 08009KT 28/07 A3012 RMK A01 T02790070  RH  027%=      5-min Rain = 0
KLA1 252204Z 08009KT 28/07 A3012 RMK A01 T02800067  RH  026%=      5-min Rain = 0
KLA1 252205Z 06009G14KT 28/07 A3012 RMK A01 T02790067  RH  026%=      5-min Rain = 0
KLA1 252206Z 06008KT 28/07 A3012 RMK A01 T02790072  RH  027%=      5-min Rain = 0
KLA1 252207Z 09008KT 28/07 A3012 RMK A01 T02800071  RH  027%=      5-min Rain = 0
KLA1 252208Z 07009KT 28/07 A3012 RMK A01 T02800071  RH  027%=      5-min Rain = 0
KLA1 252209Z 06006KT 28/08 A3012 RMK A01 T02790075  RH  028%=      5-min Rain = 0
KLA1 252210Z 07006KT 28/08 A3012 RMK A01 T02790077  RH  028%=      5-min Rain = 0
KLA1 252211Z 06006KT 28/08 A3013 RMK A01 T02800077  RH  028%=      5-min Rain = 0
KLA1 252212Z 05006G12KT 28/08 A3013 RMK A01 T02820079  RH  028%=      5-min Rain = 0
KLA1 252213Z 06006G11KT 28/08 A3012 RMK A01 T02830077  RH  027%=      5-min Rain = 0
KLA1 252214Z 06010KT 28/08 A3013 RMK A01 T02810076  RH  027%=      5-min Rain = 0
KLA1 252215Z 06009KT 28/07 A3013 RMK A01 T02800073  RH  027%=      5-min Rain = 0
KLA1 252216Z 07010KT 28/07 A3012 RMK A01 T02790071  RH  027%=      5-min Rain = 0
KLA1 252217Z 07011KT 28/07 A3012 RMK A01 T02780070  RH  027%=      5-min Rain = 0
KLA1 252218Z 06007KT 28/07 A3013 RMK A01 T02780069  RH  027%=      5-min Rain = 0
KLA1 252219Z 08005KT 28/07 A3013 RMK A01 T02780065  RH  026%=      5-min Rain = 0
KLA1 252220Z 07006KT 28/07 A3012 RMK A01 T02780068  RH  026%=      5-min Rain = 0
KLA1 252221Z 06007KT 28/07 A3012 RMK A01 T02780069  RH  027%=      5-min Rain = 0
KLA1 252222Z 06007KT 28/07 A3013 RMK A01 T02790068  RH  026%=      5-min Rain = 0
KLA1 252223Z 06009KT 28/07 A3013 RMK A01 T02790068  RH  026%=      5-min Rain = 0
KLA1 252224Z 05009KT 28/07 A3013 RMK A01 T02790069  RH  026%=      5-min Rain = 0
KLA1 252225Z 07008KT 28/06 A3013 RMK A01 T02790064  RH  025%=      5-min Rain = 0
KLA1 252226Z 04006KT 28/06 A3012 RMK A01 T02780062  RH  025%=      5-min Rain = 0
KLA1 252227Z 06006KT 28/06 A3013 RMK A01 T02770063  RH  026%=      5-min Rain = 0
KLA1 252228Z 06010KT 28/06 A3013 RMK A01 T02770063  RH  026%=      5-min Rain = 0
KLA1 252229Z 05012KT 28/06 A3013 RMK A01 T02780063  RH  026%=      5-min Rain = 0
KLA1 252230Z 02010KT 28/06 A3012 RMK A01 T02780061  RH  025%=      5-min Rain = 0
KLA1 252231Z 04008KT 28/06 A3012 RMK A01 T02780063  RH  025%=      5-min Rain = 0
KLA1 252232Z 05005KT 28/07 A3013 RMK A01 T02780065  RH  026%=      5-min Rain = 0
KLA1 252233Z 05006KT 28/06 A3013 RMK A01 T02800064  RH  026%=      5-min Rain = 0
KLA1 252234Z 05004KT 28/06 A3013 RMK A01 T02810064  RH  025%=      5-min Rain = 0
KLA1 252235Z 06010KT 28/06 A3013 RMK A01 T02820057  RH  024%=      5-min Rain = 0
KLA1 252236Z 07009KT 28/05 A3013 RMK A01 T02810051  RH  023%=      5-min Rain = 0
KLA1 252237Z 06010KT 28/05 A3013 RMK A01 T02790051  RH  023%=      5-min Rain = 0
KLA1 252238Z 06009G14KT 28/05 A3013 RMK A01 T02780051  RH  023%=      5-min Rain = 0
KLA1 252239Z 07006KT 28/05 A3013 RMK A01 T02770053  RH  024%=      5-min Rain = 0
KLA1 252240Z 10008KT 28/04 A3013 RMK A01 T02780044  RH  022%=      5-min Rain = 0
KLA1 252241Z 09007KT 28/05 A3013 RMK A01 T02770048  RH  023%=      5-min Rain = 0
KLA1 252242Z 07007KT 28/05 A3013 RMK A01 T02770050  RH  023%=      5-min Rain = 0
KLA1 252243Z 06009KT 28/06 A3013 RMK A01 T02780055  RH  024%=      5-min Rain = 0
KLA1 252244Z 04008G13KT 28/06 A3013 RMK A01 T02790055  RH  024%=      5-min Rain = 0
KLA1 252245Z 03009KT 28/05 A3013 RMK A01 T02780050  RH  023%=      5-min Rain = 0
KLA1 252246Z 04008KT 28/05 A3013 RMK A01 T02770050  RH  024%=      5-min Rain = 0
KLA1 252247Z 07007KT 28/05 A3013 RMK A01 T02760052  RH  024%=      5-min Rain = 0
KLA1 252248Z 07009KT 28/04 A3013 RMK A01 T02760044  RH  023%=      5-min Rain = 0
KLA1 252249Z 08008KT 28/04 A3013 RMK A01 T02760039  RH  022%=      5-min Rain = 0
KLA1 252250Z 08007KT 28/04 A3013 RMK A01 T02750039  RH  022%=      5-min Rain = 0
KLA1 252251Z 08008G14KT 27/04 A3013 RMK A01 T02740039  RH  022%=      5-min Rain = 0
KLA1 252252Z 07009KT 27/04 A3013 RMK A01 T02740043  RH  023%=      5-min Rain = 0
KLA1 252253Z 07008KT 28/05 A3013 RMK A01 T02750045  RH  023%=      5-min Rain = 0
KLA1 252254Z 07011KT 28/04 A3013 RMK A01 T02750044  RH  023%=      5-min Rain = 0
KLA1 252255Z 06008KT 27/05 A3013 RMK A01 T02740047  RH  023%=      5-min Rain = 0
KLA1 252256Z 06007KT 28/05 A3013 RMK A01 T02750047  RH  023%=      5-min Rain = 0
KLA1 252257Z 07009KT 28/05 A3013 RMK A01 T02750047  RH  023%=      5-min Rain = 0
KLA1 252258Z 06007KT 27/04 A3013 RMK A01 T02740043  RH  023%=      5-min Rain = 0
KLA1 252259Z 07007KT 27/05 A3013 RMK A01 T02730048  RH  024%=      5-min Rain = 0
KLA1 252300Z 06008KT 27/04 A3013 RMK A01 T02730044  RH  023%=      5-min Rain = 0
KLA1 252301Z 07005KT 27/05 A3013 RMK A01 T02740046  RH  023%=      5-min Rain = 0
KLA1 252302Z 05007KT 28/05 A3013 RMK A01 T02750049  RH  024%=      5-min Rain = 0
KLA1 252303Z 02009KT 28/04 A3013 RMK A01 T02760044  RH  023%=      5-min Rain = 0
KLA1 252304Z 03007KT 28/04 A3013 RMK A01 T02750044  RH  023%=      5-min Rain = 0
KLA1 252305Z 05004KT 28/05 A3013 RMK A01 T02750045  RH  023%=      5-min Rain = 0
KLA1 252306Z 07008KT 28/05 A3013 RMK A01 T02750047  RH  023%=      5-min Rain = 0
KLA1 252307Z 05005KT 28/05 A3013 RMK A01 T02760049  RH  024%=      5-min Rain = 0
KLA1 252308Z 05007KT 28/05 A3013 RMK A01 T02760047  RH  023%=      5-min Rain = 0
KLA1 252309Z 07009KT 28/05 A3013 RMK A01 T02750046  RH  023%=      5-min Rain = 0
KLA1 252310Z 08007KT 28/05 A3013 RMK A01 T02750048  RH  023%=      5-min Rain = 0
KLA1 252311Z 07011KT 28/05 A3013 RMK A01 T02750049  RH  024%=      5-min Rain = 0
KLA1 252312Z 07009G14KT 28/05 A3013 RMK A01 T02750049  RH  024%=      5-min Rain = 0
KLA1 252313Z 07008KT 28/05 A3013 RMK A01 T02760051  RH  024%=      5-min Rain = 0
KLA1 252314Z 08005KT 28/05 A3013 RMK A01 T02760053  RH  024%=      5-min Rain = 0
KLA1 252315Z 05005KT 28/05 A3013 RMK A01 T02760054  RH  024%=      5-min Rain = 0
KLA1 252316Z 04008KT 28/05 A3013 RMK A01 T02770054  RH  024%=      5-min Rain = 0
KLA1 252317Z 03008KT 28/05 A3013 RMK A01 T02770047  RH  023%=      5-min Rain = 0
KLA1 252318Z 03010KT 28/05 A3013 RMK A01 T02760050  RH  024%=      5-min Rain = 0
KLA1 252319Z 03009KT 27/05 A3013 RMK A01 T02740048  RH  024%=      5-min Rain = 0
KLA1 252320Z 04006KT 27/05 A3013 RMK A01 T02730050  RH  024%=      5-min Rain = 0
KLA1 252321Z 03007KT 27/05 A3013 RMK A01 T02720052  RH  024%=      5-min Rain = 0
KLA1 252322Z 04008G15KT 27/05 A3013 RMK A01 T02720054  RH  025%=      5-min Rain = 0
KLA1 252323Z 06007G12KT 27/06 A3013 RMK A01 T02720055  RH  025%=      5-min Rain = 0
KLA1 252324Z 07007KT 27/06 A3013 RMK A01 T02720057  RH  025%=      5-min Rain = 0
KLA1 252325Z 07009KT 27/05 A3013 RMK A01 T02720054  RH  025%=      5-min Rain = 0
KLA1 252326Z 07007KT 27/05 A3013 RMK A01 T02710052  RH  025%=      5-min Rain = 0
KLA1 252327Z 07004KT 27/05 A3013 RMK A01 T02700053  RH  025%=      5-min Rain = 0
KLA1 252328Z 03005G10KT 27/06 A3013 RMK A01 T02700057  RH  026%=      5-min Rain = 0
KLA1 252329Z 03008KT 27/06 A3013 RMK A01 T02720057  RH  025%=      5-min Rain = 0
KLA1 252330Z 04010KT 27/06 A3013 RMK A01 T02720056  RH  025%=      5-min Rain = 0
KLA1 252331Z 03009KT 27/06 A3013 RMK A01 T02720056  RH  025%=      5-min Rain = 0
KLA1 252332Z 05008KT 27/06 A3013 RMK A01 T02710057  RH  025%=      5-min Rain = 0
KLA1 252333Z 08010KT 27/06 A3013 RMK A01 T02710056  RH  025%=      5-min Rain = 0
KLA1 252334Z 07009KT 27/05 A3013 RMK A01 T02710054  RH  025%=      5-min Rain = 0
KLA1 252335Z 06006KT 27/05 A3013 RMK A01 T02690054  RH  025%=      5-min Rain = 0
KLA1 252336Z 05005KT 27/06 A3013 RMK A01 T02690056  RH  026%=      5-min Rain = 0
KLA1 252337Z 06008KT 27/06 A3013 RMK A01 T02710059  RH  026%=      5-min Rain = 0
KLA1 252338Z 06009KT 27/06 A3013 RMK A01 T02710056  RH  025%=      5-min Rain = 0
KLA1 252339Z 07009KT 27/05 A3013 RMK A01 T02710054  RH  025%=      5-min Rain = 0
KLA1 252340Z 07005KT 27/05 A3013 RMK A01 T02700054  RH  025%=      5-min Rain = 0
KLA1 252341Z 06007KT 27/06 A3013 RMK A01 T02700057  RH  026%=      5-min Rain = 0
KLA1 252342Z 05006KT 27/06 A3013 RMK A01 T02700058  RH  026%=      5-min Rain = 0
KLA1 252343Z 06008KT 27/06 A3013 RMK A01 T02710058  RH  026%=      5-min Rain = 0
KLA1 252344Z 07009KT 27/06 A3013 RMK A01 T02710057  RH  026%=      5-min Rain = 0
KLA1 252345Z 07011KT 27/05 A3013 RMK A01 T02720053  RH  025%=      5-min Rain = 0
KLA1 252346Z 06008KT 27/05 A3014 RMK A01 T02700053  RH  025%=      5-min Rain = 0
KLA1 252347Z 05007KT 27/05 A3013 RMK A01 T02690053  RH  025%=      5-min Rain = 0
KLA1 252348Z 07008KT 27/05 A3013 RMK A01 T02690054  RH  025%=      5-min Rain = 0
KLA1 252349Z 08006KT 27/05 A3013 RMK A01 T02680053  RH  025%=      5-min Rain = 0
KLA1 252350Z 06005KT 27/06 A3013 RMK A01 T02680055  RH  026%=      5-min Rain = 0
KLA1 252351Z 05005KT 27/06 A3014 RMK A01 T02680055  RH  026%=      5-min Rain = 0
KLA1 252352Z 03008KT 27/06 A3013 RMK A01 T02680057  RH  026%=      5-min Rain = 0
KLA1 252353Z 04007KT 27/06 A3013 RMK A01 T02690056  RH  026%=      5-min Rain = 0
KLA1 252354Z 06009KT 27/06 A3013 RMK A01 T02680056  RH  026%=      5-min Rain = 0
KLA1 252355Z 05009KT 27/06 A3014 RMK A01 T02670055  RH  026%=      5-min Rain = 0
KLA1 252356Z 04007KT 27/05 A3013 RMK A01 T02670053  RH  026%=      5-min Rain = 0
KLA1 252357Z 05010KT 27/05 A3014 RMK A01 T02660054  RH  026%=      5-min Rain = 0
KLA1 252358Z 06009KT 27/05 A3014 RMK A01 T02650049  RH  025%=      5-min Rain = 0
KLA1 252359Z 06010KT 26/05 A3014 RMK A01 T02640051  RH  026%=      5-min Rain = 0
KLA1 260000Z 06013KT 26/05 A3014 RMK A01 T02630049  RH  025%=      5-min Rain = 0
KLA1 260001Z 07011KT 26/05 A3014 RMK A01 T02610047  RH  025%=      5-min Rain = 0
KLA1 260002Z 06007KT 26/05 A3014 RMK A01 T02590048  RH  026%=      5-min Rain = 0
KLA1 260003Z 07008KT 26/05 A3014 RMK A01 T02590049  RH  026%=      5-min Rain = 0
KLA1 260004Z 06011KT 26/05 A3014 RMK A01 T02590046  RH  025%=      5-min Rain = 0
KLA1 260005Z 06010KT 26/05 A3014 RMK A01 T02590048  RH  026%=      5-min Rain = 0
KLA1 260006Z 06009KT 26/05 A3014 RMK A01 T02590047  RH  025%=      5-min Rain = 0
KLA1 260007Z 04007KT 26/05 A3014 RMK A01 T02590048  RH  026%=      5-min Rain = 0
KLA1 260008Z 05009KT 26/05 A3014 RMK A01 T02590048  RH  026%=      5-min Rain = 0
KLA1 260009Z 05009KT 26/05 A3014 RMK A01 T02590047  RH  026%=      5-min Rain = 0
KLA1 260010Z 05010KT 26/05 A3014 RMK A01 T02590046  RH  025%=      5-min Rain = 0
KLA1 260011Z 06009KT 26/05 A3014 RMK A01 T02590047  RH  025%=      5-min Rain = 0
KLA1 260012Z 07007KT 26/05 A3014 RMK A01 T02590046  RH  025%=      5-min Rain = 0
KLA1 260013Z 06009KT 26/05 A3014 RMK A01 T02570045  RH  025%=      5-min Rain = 0
KLA1 260014Z 06009KT 26/04 A3014 RMK A01 T02570044  RH  025%=      5-min Rain = 0
KLA1 260015Z 07010KT 26/04 A3014 RMK A01 T02560042  RH  025%=      5-min Rain = 0
KLA1 260016Z 05008KT 26/04 A3014 RMK A01 T02560044  RH  026%=      5-min Rain = 0
KLA1 260017Z 06007KT 26/04 A3014 RMK A01 T02560044  RH  025%=      5-min Rain = 0
KLA1 260018Z 06009KT 26/04 A3014 RMK A01 T02560044  RH  025%=      5-min Rain = 0
KLA1 260019Z 06008KT 26/05 A3014 RMK A01 T02570045  RH  025%=      5-min Rain = 0
KLA1 260020Z 08008KT 26/04 A3014 RMK A01 T02570044  RH  025%=      5-min Rain = 0
KLA1 260021Z 06009KT 26/05 A3014 RMK A01 T02570045  RH  025%=      5-min Rain = 0
KLA1 260022Z 07006G12KT 26/05 A3014 RMK A01 T02570046  RH  026%=      5-min Rain = 0
KLA1 260023Z 05006KT 26/05 A3014 RMK A01 T02560047  RH  026%=      5-min Rain = 0
KLA1 260024Z 06006KT 26/05 A3014 RMK A01 T02560049  RH  026%=      5-min Rain = 0
KLA1 260025Z 06006KT 26/05 A3014 RMK A01 T02560050  RH  026%=      5-min Rain = 0
KLA1 260026Z 06009KT 26/05 A3014 RMK A01 T02560050  RH  026%=      5-min Rain = 0
KLA1 260027Z 06007G12KT 26/05 A3014 RMK A01 T02560050  RH  027%=      5-min Rain = 0
KLA1 260028Z 07010KT 26/05 A3014 RMK A01 T02560050  RH  027%=      5-min Rain = 0
KLA1 260029Z 07010KT 26/05 A3014 RMK A01 T02560050  RH  027%=      5-min Rain = 0
KLA1 260030Z 06009KT 26/05 A3014 RMK A01 T02550052  RH  027%=      5-min Rain = 0
KLA1 260031Z 06009KT 26/05 A3014 RMK A01 T02550049  RH  027%=      5-min Rain = 0
KLA1 260032Z 06009KT 26/05 A3014 RMK A01 T02550050  RH  027%=      5-min Rain = 0
KLA1 260033Z 05010KT 25/05 A3014 RMK A01 T02540051  RH  027%=      5-min Rain = 0
KLA1 260034Z 07010KT 25/05 A3014 RMK A01 T02540050  RH  027%=      5-min Rain = 0
KLA1 260035Z 07011KT 25/05 A3014 RMK A01 T02530051  RH  027%=      5-min Rain = 0
KLA1 260036Z 07010KT 25/05 A3014 RMK A01 T02530051  RH  027%=      5-min Rain = 0
KLA1 260037Z 07008KT 25/05 A3014 RMK A01 T02530051  RH  027%=      5-min Rain = 0
KLA1 260038Z 07008KT 25/05 A3014 RMK A01 T02520052  RH  028%=      5-min Rain = 0
KLA1 260039Z 05010KT 25/05 A3014 RMK A01 T02520051  RH  027%=      5-min Rain = 0
KLA1 260040Z 05006KT 25/05 A3014 RMK A01 T02510050  RH  027%=      5-min Rain = 0
KLA1 260041Z 05007KT 25/05 A3014 RMK A01 T02510053  RH  028%=      5-min Rain = 0
KLA1 260042Z 04010KT 25/05 A3014 RMK A01 T02500051  RH  028%=      5-min Rain = 0
KLA1 260043Z 05007KT 25/05 A3014 RMK A01 T02500051  RH  028%=      5-min Rain = 0
KLA1 260044Z 05007KT 25/05 A3014 RMK A01 T02490051  RH  028%=      5-min Rain = 0
KLA1 260045Z 06009KT 25/05 A3014 RMK A01 T02480051  RH  028%=      5-min Rain = 0
KLA1 260046Z 06008KT 25/05 A3014 RMK A01 T02470050  RH  028%=      5-min Rain = 0
KLA1 260047Z 05007KT 25/05 A3014 RMK A01 T02470051  RH  028%=      5-min Rain = 0
KLA1 260048Z 05007KT 25/05 A3014 RMK A01 T02470051  RH  028%=      5-min Rain = 0
KLA1 260049Z 04008KT 25/05 A3014 RMK A01 T02460051  RH  028%=      5-min Rain = 0
KLA1 260050Z 04008KT 25/05 A3014 RMK A01 T02450051  RH  029%=      5-min Rain = 0
KLA1 260051Z 05007KT 24/05 A3014 RMK A01 T02440051  RH  029%=      5-min Rain = 0
KLA1 260052Z 05008KT 24/05 A3014 RMK A01 T02430051  RH  029%=      5-min Rain = 0
KLA1 260053Z 04008KT 24/05 A3014 RMK A01 T02420051  RH  029%=      5-min Rain = 0
KLA1 260054Z 05009KT 24/05 A3014 RMK A01 T02420051  RH  029%=      5-min Rain = 0
KLA1 260055Z 05009KT 24/05 A3015 RMK A01 T02420051  RH  029%=      5-min Rain = 0
KLA1 260056Z 04008KT 24/05 A3015 RMK A01 T02410050  RH  029%=      5-min Rain = 0
KLA1 260057Z 05010KT 24/05 A3015 RMK A01 T02410051  RH  029%=      5-min Rain = 0
KLA1 260058Z 04010KT 24/05 A3015 RMK A01 T02400050  RH  029%=      5-min Rain = 0
KLA1 260059Z 04008KT 24/05 A3015 RMK A01 T02400051  RH  029%=      5-min Rain = 0
KLA1 260100Z 05009KT 24/05 A3015 RMK A01 T02400051  RH  029%=      5-min Rain = 0
KLA1 260101Z 05010G15KT 24/05 A3015 RMK A01 T02400051  RH  030%=      5-min Rain = 0
KLA1 260102Z 05010KT 24/05 A3015 RMK A01 T02390050  RH  030%=      5-min Rain = 0
KLA1 260103Z 05008KT 24/05 A3015 RMK A01 T02390050  RH  030%=      5-min Rain = 0
KLA1 260104Z 05009KT 24/05 A3015 RMK A01 T02390051  RH  030%=      5-min Rain = 0
KLA1 260105Z 05008KT 24/05 A3015 RMK A01 T02380051  RH  030%=      5-min Rain = 0
KLA1 260106Z 05007KT 24/05 A3015 RMK A01 T02370052  RH  030%=      5-min Rain = 0
KLA1 260107Z 06007KT 24/05 A3015 RMK A01 T02370051  RH  030%=      5-min Rain = 0
KLA1 260108Z 05009KT 24/05 A3015 RMK A01 T02360052  RH  030%=      5-min Rain = 0
KLA1 260109Z 06010KT 24/05 A3015 RMK A01 T02350051  RH  030%=      5-min Rain = 0
KLA1 260110Z 05009KT 24/05 A3015 RMK A01 T02350050  RH  030%=      5-min Rain = 0
KLA1 260111Z 04008KT 24/05 A3015 RMK A01 T02350050  RH  030%=      5-min Rain = 0
KLA1 260112Z 05009KT 24/05 A3015 RMK A01 T02350050  RH  030%=      5-min Rain = 0
KLA1 260113Z 04009KT 24/05 A3015 RMK A01 T02350049  RH  030%=      5-min Rain = 0
KLA1 260114Z 05008KT 24/05 A3015 RMK A01 T02350049  RH  030%=      5-min Rain = 0
KLA1 260115Z 05009KT 23/05 A3015 RMK A01 T02340049  RH  030%=      5-min Rain = 0
KLA1 260116Z 05009KT 23/05 A3015 RMK A01 T02340049  RH  030%=      5-min Rain = 0
KLA1 260117Z 05009KT 23/05 A3015 RMK A01 T02340048  RH  030%=      5-min Rain = 0
KLA1 260118Z 06009KT 23/05 A3015 RMK A01 T02340047  RH  030%=      5-min Rain = 0
KLA1 260119Z 06008KT 23/05 A3015 RMK A01 T02330047  RH  030%=      5-min Rain = 0
KLA1 260120Z 05011KT 23/05 A3015 RMK A01 T02340047  RH  030%=      5-min Rain = 0
KLA1 260121Z 06010KT 23/05 A3015 RMK A01 T02340046  RH  029%=      5-min Rain = 0
KLA1 260122Z 06009KT 23/05 A3015 RMK A01 T02340045  RH  029%=      5-min Rain = 0
KLA1 260123Z 05008KT 23/05 A3015 RMK A01 T02340045  RH  029%=      5-min Rain = 0
KLA1 260124Z 06009KT 23/05 A3015 RMK A01 T02340046  RH  029%=      5-min Rain = 0
KLA1 260125Z 05008KT 23/05 A3015 RMK A01 T02330045  RH  029%=      5-min Rain = 0
KLA1 260126Z 06008KT 23/04 A3015 RMK A01 T02330043  RH  029%=      5-min Rain = 0
KLA1 260127Z 04009KT 23/04 A3015 RMK A01 T02330044  RH  029%=      5-min Rain = 0
KLA1 260128Z 05008KT 23/04 A3015 RMK A01 T02330044  RH  029%=      5-min Rain = 0
KLA1 260129Z 04007KT 23/05 A3015 RMK A01 T02330045  RH  029%=      5-min Rain = 0
KLA1 260130Z 06010KT 23/04 A3015 RMK A01 T02320043  RH  029%=      5-min Rain = 0
KLA1 260131Z 04009KT 23/04 A3015 RMK A01 T02310043  RH  029%=      5-min Rain = 0
KLA1 260132Z 05009KT 23/04 A3015 RMK A01 T02320044  RH  029%=      5-min Rain = 0
KLA1 260133Z 05007KT 23/04 A3015 RMK A01 T02320044  RH  030%=      5-min Rain = 0
KLA1 260134Z 06008KT 23/05 A3015 RMK A01 T02310045  RH  030%=      5-min Rain = 0
KLA1 260135Z 06009KT 23/05 A3016 RMK A01 T02300046  RH  030%=      5-min Rain = 0
KLA1 260136Z 06010G15KT 23/05 A3016 RMK A01 T02300047  RH  030%=      5-min Rain = 0
KLA1 260137Z 06011G16KT 23/05 A3016 RMK A01 T02300048  RH  031%=      5-min Rain = 0
KLA1 260138Z 07011KT 23/05 A3016 RMK A01 T02310049  RH  031%=      5-min Rain = 0
KLA1 260139Z 07010KT 23/05 A3016 RMK A01 T02320049  RH  031%=      5-min Rain = 0
KLA1 260140Z 06009G14KT 23/05 A3016 RMK A01 T02330051  RH  031%=      5-min Rain = 0
KLA1 260141Z 05006KT 23/05 A3016 RMK A01 T02320049  RH  031%=      5-min Rain = 0
KLA1 260142Z 06008KT 23/05 A3016 RMK A01 T02310050  RH  031%=      5-min Rain = 0
KLA1 260143Z 04010KT 23/05 A3016 RMK A01 T02300050  RH  031%=      5-min Rain = 0
KLA1 260144Z 04009KT 23/05 A3016 RMK A01 T02300049  RH  031%=      5-min Rain = 0
KLA1 260145Z 05009KT 23/05 A3016 RMK A01 T02290049  RH  031%=      5-min Rain = 0
KLA1 260146Z 04008KT 23/05 A3016 RMK A01 T02290049  RH  031%=      5-min Rain = 0
KLA1 260147Z 04010KT 23/05 A3016 RMK A01 T02280050  RH  031%=      5-min Rain = 0
KLA1 260148Z 04009KT 23/05 A3016 RMK A01 T02270050  RH  032%=      5-min Rain = 0
KLA1 260149Z 05010KT 23/05 A3016 RMK A01 T02270050  RH  032%=      5-min Rain = 0
KLA1 260150Z 04011KT 23/05 A3016 RMK A01 T02270051  RH  032%=      5-min Rain = 0
KLA1 260151Z 04011KT 23/05 A3016 RMK A01 T02260051  RH  032%=      5-min Rain = 0
KLA1 260152Z 04010KT 23/05 A3016 RMK A01 T02260051  RH  032%=      5-min Rain = 0
KLA1 260153Z 04010KT 23/05 A3016 RMK A01 T02260051  RH  032%=      5-min Rain = 0
KLA1 260154Z 04011KT 23/05 A3016 RMK A01 T02250052  RH  032%=      5-min Rain = 0
KLA1 260155Z 04012KT 22/05 A3016 RMK A01 T02240052  RH  032%=      5-min Rain = 0
KLA1 260156Z 04013KT 22/05 A3016 RMK A01 T02240052  RH  033%=      5-min Rain = 0
KLA1 260157Z 05014G19KT 22/05 A3016 RMK A01 T02240052  RH  033%=      5-min Rain = 0
KLA1 260158Z 04014KT 22/05 A3016 RMK A01 T02240052  RH  033%=      5-min Rain = 0
KLA1 260159Z 04013KT 22/05 A3016 RMK A01 T02240053  RH  033%=      5-min Rain = 0
KLA1 260200Z 04011KT 22/05 A3016 RMK A01 T02240053  RH  033%=      5-min Rain = 0
KLA1 260201Z 04014KT 22/05 A3017 RMK A01 T02240054  RH  033%=      5-min Rain = 0
KLA1 260202Z 04014KT 22/05 A3017 RMK A01 T02230054  RH  033%=      5-min Rain = 0
KLA1 260203Z 04013KT 22/05 A3017 RMK A01 T02230054  RH  033%=      5-min Rain = 0
KLA1 260204Z 05013KT 22/05 A3017 RMK A01 T02230054  RH  033%=      5-min Rain = 0
KLA1 260205Z 04014G19KT 22/05 A3017 RMK A01 T02230054  RH  033%=      5-min Rain = 0
KLA1 260206Z 04015G20KT 22/05 A3017 RMK A01 T02230054  RH  033%=      5-min Rain = 0
KLA1 260207Z 04012G18KT 22/05 A3017 RMK A01 T02230054  RH  033%=      5-min Rain = 0
KLA1 260208Z 04012KT 22/06 A3017 RMK A01 T02230055  RH  033%=      5-min Rain = 0
KLA1 260209Z 04011G16KT 22/06 A3017 RMK A01 T02230055  RH  033%=      5-min Rain = 0
KLA1 260210Z 05012G17KT 22/06 A3017 RMK A01 T02230055  RH  034%=      5-min Rain = 0
KLA1 260211Z 04014KT 22/06 A3017 RMK A01 T02220056  RH  034%=      5-min Rain = 0
KLA1 260212Z 04013KT 22/06 A3017 RMK A01 T02230056  RH  034%=      5-min Rain = 0
KLA1 260213Z 05011KT 22/06 A3017 RMK A01 T02230056  RH  034%=      5-min Rain = 0
KLA1 260214Z 05011G16KT 22/06 A3017 RMK A01 T02220056  RH  034%=      5-min Rain = 0
KLA1 260215Z 05012KT 22/06 A3017 RMK A01 T02220057  RH  034%=      5-min Rain = 0
KLA1 260216Z 05010G16KT 22/06 A3017 RMK A01 T02210057  RH  034%=      5-min Rain = 0
KLA1 260217Z 05012G19KT 22/06 A3017 RMK A01 T02210057  RH  035%=      5-min Rain = 0
KLA1 260218Z 05013KT 22/06 A3017 RMK A01 T02200056  RH  035%=      5-min Rain = 0
KLA1 260219Z 05013KT 22/06 A3017 RMK A01 T02210057  RH  034%=      5-min Rain = 0
KLA1 260220Z 05012KT 22/06 A3017 RMK A01 T02210057  RH  034%=      5-min Rain = 0
KLA1 260221Z 05012KT 22/06 A3017 RMK A01 T02210057  RH  035%=      5-min Rain = 0
KLA1 260222Z 05011KT 22/06 A3017 RMK A01 T02200057  RH  035%=      5-min Rain = 0
KLA1 260223Z 05011KT 22/06 A3017 RMK A01 T02200058  RH  035%=      5-min Rain = 0
KLA1 260224Z 06011KT 22/06 A3017 RMK A01 T02190058  RH  035%=      5-min Rain = 0
KLA1 260225Z 06012KT 22/06 A3017 RMK A01 T02190058  RH  035%=      5-min Rain = 0
KLA1 260226Z 06010KT 22/06 A3017 RMK A01 T02190058  RH  035%=      5-min Rain = 0
KLA1 260227Z 04010KT 22/06 A3017 RMK A01 T02190058  RH  035%=      5-min Rain = 0
KLA1 260228Z 06010KT 22/06 A3018 RMK A01 T02190059  RH  035%=      5-min Rain = 0
KLA1 260229Z 05010KT 22/06 A3018 RMK A01 T02180059  RH  036%=      5-min Rain = 0
KLA1 260230Z 06011G16KT 22/06 A3018 RMK A01 T02170059  RH  036%=      5-min Rain = 0
KLA1 260231Z 06010G15KT 22/06 A3017 RMK A01 T02170059  RH  036%=      5-min Rain = 0
KLA1 260232Z 05012KT 22/06 A3018 RMK A01 T02170059  RH  036%=      5-min Rain = 0
KLA1 260233Z 05012KT 22/06 A3018 RMK A01 T02170059  RH  036%=      5-min Rain = 0
KLA1 260234Z 06010G15KT 22/06 A3018 RMK A01 T02170059  RH  036%=      5-min Rain = 0
KLA1 260235Z 05011KT 22/06 A3018 RMK A01 T02170059  RH  036%=      5-min Rain = 0
KLA1 260236Z 06012G17KT 22/06 A3018 RMK A01 T02170059  RH  036%=      5-min Rain = 0
KLA1 260237Z 05013KT 22/06 A3018 RMK A01 T02160059  RH  036%=      5-min Rain = 0
KLA1 260238Z 05011KT 22/06 A3018 RMK A01 T02160059  RH  036%=      5-min Rain = 0
KLA1 260239Z 05012G18KT 22/06 A3018 RMK A01 T02160059  RH  036%=      5-min Rain = 0
KLA1 260240Z 05011KT 22/06 A3018 RMK A01 T02160059  RH  036%=      5-min Rain = 0
KLA1 260241Z 04012G18KT 22/06 A3018 RMK A01 T02160059  RH  036%=      5-min Rain = 0
KLA1 260242Z 05014KT 22/06 A3018 RMK A01 T02170060  RH  036%=      5-min Rain = 0
KLA1 260243Z 04012KT 22/06 A3018 RMK A01 T02160060  RH  036%=      5-min Rain = 0
KLA1 260244Z 04012KT 22/06 A3018 RMK A01 T02160060  RH  036%=      5-min Rain = 0
KLA1 260245Z 04012KT 22/06 A3018 RMK A01 T02160060  RH  036%=      5-min Rain = 0
KLA1 260246Z 04013KT 22/06 A3018 RMK A01 T02160060  RH  036%=      5-min Rain = 0
KLA1 260247Z 05012KT 22/06 A3018 RMK A01 T02150060  RH  036%=      5-min Rain = 0
KLA1 260248Z 04010KT 22/06 A3018 RMK A01 T02150060  RH  036%=      5-min Rain = 0
KLA1 260249Z 05016KT 22/06 A3018 RMK A01 T02150061  RH  037%=      5-min Rain = 0
KLA1 260250Z 05014KT 22/06 A3018 RMK A01 T02150060  RH  037%=      5-min Rain = 0
KLA1 260251Z 05012KT 22/06 A3018 RMK A01 T02150061  RH  037%=      5-min Rain = 0
KLA1 260252Z 06011KT 22/06 A3018 RMK A01 T02150061  RH  037%=      5-min Rain = 0
KLA1 260253Z 05014KT 21/06 A3018 RMK A01 T02140061  RH  037%=      5-min Rain = 0
KLA1 260254Z 06013KT 21/06 A3018 RMK A01 T02140061  RH  037%=      5-min Rain = 0
KLA1 260255Z 06012KT 21/06 A3018 RMK A01 T02140061  RH  037%=      5-min Rain = 0
KLA1 260256Z 05010KT 21/06 A3019 RMK A01 T02140062  RH  037%=      5-min Rain = 0
KLA1 260257Z 05013G18KT 21/06 A3019 RMK A01 T02130062  RH  037%=      5-min Rain = 0
KLA1 260258Z 05013G20KT 21/06 A3019 RMK A01 T02120062  RH  038%=      5-min Rain = 0
KLA1 260259Z 05011KT 21/06 A3019 RMK A01 T02120062  RH  037%=      5-min Rain = 0
KLA1 260300Z 06013G18KT 21/06 A3019 RMK A01 T02130062  RH  038%=      5-min Rain = 0
KLA1 260301Z 05010KT 21/06 A3019 RMK A01 T02120062  RH  038%=      5-min Rain = 0
KLA1 260302Z 04011KT 21/06 A3019 RMK A01 T02120063  RH  038%=      5-min Rain = 0
KLA1 260303Z 05012G17KT 21/06 A3019 RMK A01 T02110063  RH  038%=      5-min Rain = 0
KLA1 260304Z 06013G18KT 21/06 A3019 RMK A01 T02100063  RH  038%=      5-min Rain = 0
KLA1 260305Z 05012G17KT 21/06 A3019 RMK A01 T02100063  RH  038%=      5-min Rain = 0
KLA1 260306Z 05010G15KT 21/06 A3019 RMK A01 T02100063  RH  038%=      5-min Rain = 0
KLA1 260307Z 06010KT 21/06 A3019 RMK A01 T02090063  RH  039%=      5-min Rain = 0
KLA1 260308Z 05012KT 21/06 A3019 RMK A01 T02090063  RH  039%=      5-min Rain = 0
KLA1 260309Z 06011KT 21/06 A3019 RMK A01 T02080063  RH  039%=      5-min Rain = 0
KLA1 260310Z 05012KT 21/06 A3019 RMK A01 T02080064  RH  039%=      5-min Rain = 0
KLA1 260311Z 06011G17KT 21/06 A3019 RMK A01 T02070064  RH  039%=      5-min Rain = 0
KLA1 260312Z 06012KT 21/06 A3019 RMK A01 T02070064  RH  039%=      5-min Rain = 0
KLA1 260313Z 06010G15KT 21/06 A3019 RMK A01 T02070064  RH  039%=      5-min Rain = 0
KLA1 260314Z 05010KT 21/07 A3019 RMK A01 T02070065  RH  040%=      5-min Rain = 0
KLA1 260315Z 05012KT 21/07 A3019 RMK A01 T02070065  RH  040%=      5-min Rain = 0
KLA1 260316Z 05013KT 21/07 A302 RMK A01 T02070065  RH  040%=      5-min Rain = 0
KLA1 260317Z 06012KT 21/07 A302 RMK A01 T02070065  RH  040%=      5-min Rain = 0
KLA1 260318Z 05011KT 21/07 A302 RMK A01 T02070065  RH  040%=      5-min Rain = 0
KLA1 260319Z 06015G21KT 21/07 A302 RMK A01 T02060066  RH  040%=      5-min Rain = 0
KLA1 260320Z 05010KT 21/07 A302 RMK A01 T02060066  RH  040%=      5-min Rain = 0
KLA1 260321Z 05012KT 21/07 A302 RMK A01 T02060066  RH  040%=      5-min Rain = 0
KLA1 260322Z 05011KT 21/07 A302 RMK A01 T02050066  RH  040%=      5-min Rain = 0
KLA1 260323Z 06012G18KT 21/07 A302 RMK A01 T02050066  RH  041%=      5-min Rain = 0
KLA1 260324Z 06012G17KT 21/07 A302 RMK A01 T02050066  RH  041%=      5-min Rain = 0
KLA1 260325Z 06013G18KT 20/07 A302 RMK A01 T02040066  RH  041%=      5-min Rain = 0
KLA1 260326Z 05015G20KT 21/07 A302 RMK A01 T02050066  RH  041%=      5-min Rain = 0
KLA1 260327Z 06012G17KT 20/07 A302 RMK A01 T02040066  RH  041%=      5-min Rain = 0
KLA1 260328Z 07013KT 20/07 A302 RMK A01 T02040066  RH  041%=      5-min Rain = 0
KLA1 260329Z 06012G17KT 20/07 A302 RMK A01 T02040066  RH  041%=      5-min Rain = 0
KLA1 260330Z 06012KT 21/07 A302 RMK A01 T02050066  RH  041%=      5-min Rain = 0
KLA1 260331Z 06014KT 20/07 A302 RMK A01 T02040066  RH  041%=      5-min Rain = 0
KLA1 260332Z 06010G15KT 20/07 A302 RMK A01 T02040066  RH  041%=      5-min Rain = 0
KLA1 260333Z 05010KT 20/07 A302 RMK A01 T02040066  RH  041%=      5-min Rain = 0
KLA1 260334Z 07009G14KT 20/07 A302 RMK A01 T02040066  RH  041%=      5-min Rain = 0
KLA1 260335Z 07014G20KT 20/07 A302 RMK A01 T02030067  RH  041%=      5-min Rain = 0
KLA1 260336Z 06015G22KT 20/07 A302 RMK A01 T02030066  RH  041%=      5-min Rain = 0
KLA1 260337Z 05012G17KT 21/07 A302 RMK A01 T02050067  RH  041%=      5-min Rain = 0
KLA1 260338Z 06012G19KT 21/07 A302 RMK A01 T02050067  RH  041%=      5-min Rain = 0
KLA1 260339Z 06013KT 20/07 A302 RMK A01 T02040067  RH  041%=      5-min Rain = 0
KLA1 260340Z 07015KT 20/07 A302 RMK A01 T02040066  RH  041%=      5-min Rain = 0
KLA1 260341Z 06012KT 20/07 A302 RMK A01 T02040067  RH  041%=      5-min Rain = 0
KLA1 260342Z 06010KT 20/07 A302 RMK A01 T02040067  RH  041%=      5-min Rain = 0
KLA1 260343Z 06010G15KT 20/07 A302 RMK A01 T02030067  RH  041%=      5-min Rain = 0
KLA1 260344Z 06015G20KT 20/07 A302 RMK A01 T02030067  RH  041%=      5-min Rain = 0
KLA1 260345Z 06011G16KT 20/07 A302 RMK A01 T02030066  RH  041%=      5-min Rain = 0
KLA1 260346Z 05012KT 20/07 A302 RMK A01 T02030067  RH  041%=      5-min Rain = 0
KLA1 260347Z 06012G21KT 20/07 A302 RMK A01 T02020067  RH  041%=      5-min Rain = 0
KLA1 260348Z 06013G21KT 20/07 A302 RMK A01 T02020066  RH  041%=      5-min Rain = 0
KLA1 260349Z 05011G16KT 20/07 A302 RMK A01 T02020066  RH  041%=      5-min Rain = 0
KLA1 260350Z 06011KT 20/07 A302 RMK A01 T02020066  RH  041%=      5-min Rain = 0
KLA1 260351Z 06013G19KT 20/07 A302 RMK A01 T02010066  RH  041%=      5-min Rain = 0
KLA1 260352Z 05011KT 20/07 A302 RMK A01 T02020066  RH  041%=      5-min Rain = 0
KLA1 260353Z 05010G15KT 20/07 A302 RMK A01 T02010066  RH  041%=      5-min Rain = 0
KLA1 260354Z 05014KT 20/07 A302 RMK A01 T02010066  RH  041%=      5-min Rain = 0
KLA1 260355Z 06011KT 20/07 A302 RMK A01 T02010065  RH  041%=      5-min Rain = 0
KLA1 260356Z 06011KT 20/07 A302 RMK A01 T02020066  RH  041%=      5-min Rain = 0
KLA1 260357Z 06013KT 20/07 A302 RMK A01 T02010065  RH  041%=      5-min Rain = 0
KLA1 260358Z 07011KT 20/07 A302 RMK A01 T02020065  RH  041%=      5-min Rain = 0
KLA1 260359Z 07015G20KT 20/06 A3021 RMK A01 T02030064  RH  041%=      5-min Rain = 0
KLA1 260400Z 06015G23KT 20/06 A3021 RMK A01 T02040064  RH  040%=      5-min Rain = 0
KLA1 260401Z 07015KT 21/06 A3021 RMK A01 T02050064  RH  040%=      5-min Rain = 0
KLA1 260402Z 07017KT 21/06 A3021 RMK A01 T02060064  RH  040%=      5-min Rain = 0
KLA1 260403Z 06015KT 21/06 A3021 RMK A01 T02060064  RH  040%=      5-min Rain = 0
KLA1 260404Z 05013G18KT 21/06 A3021 RMK A01 T02060064  RH  040%=      5-min Rain = 0
KLA1 260405Z 07012KT 21/07 A3021 RMK A01 T02060065  RH  040%=      5-min Rain = 0
KLA1 260406Z 06010G15KT 21/07 A3021 RMK A01 T02050065  RH  040%=      5-min Rain = 0
KLA1 260407Z 07012G20KT 20/07 A3021 RMK A01 T02040065  RH  040%=      5-min Rain = 0
KLA1 260408Z 07013KT 20/07 A3021 RMK A01 T02040065  RH  040%=      5-min Rain = 0
KLA1 260409Z 07012KT 20/07 A3021 RMK A01 T02040065  RH  041%=      5-min Rain = 0
KLA1 260410Z 06014G20KT 20/07 A3021 RMK A01 T02040066  RH  041%=      5-min Rain = 0
KLA1 260411Z 06012G18KT 20/07 A3021 RMK A01 T02030066  RH  041%=      5-min Rain = 0
KLA1 260412Z 07014KT 20/07 A3022 RMK A01 T02030066  RH  041%=      5-min Rain = 0
KLA1 260413Z 06012G18KT 20/07 A3022 RMK A01 T02030065  RH  041%=      5-min Rain = 0
KLA1 260414Z 06015KT 20/07 A3022 RMK A01 T02030066  RH  041%=      5-min Rain = 0
KLA1 260415Z 07014G19KT 20/07 A3022 RMK A01 T02030066  RH  041%=      5-min Rain = 0
KLA1 260416Z 08012KT 20/07 A3022 RMK A01 T02030066  RH  041%=      5-min Rain = 0
KLA1 260417Z 07012G17KT 20/07 A3022 RMK A01 T02030066  RH  041%=      5-min Rain = 0
KLA1 260418Z 06010KT 20/07 A3022 RMK A01 T02030066  RH  041%=      5-min Rain = 0
KLA1 260419Z 08008KT 20/07 A3022 RMK A01 T02030065  RH  041%=      5-min Rain = 0
KLA1 260420Z 07008KT 20/07 A3022 RMK A01 T02020065  RH  041%=      5-min Rain = 0
KLA1 260421Z 07009KT 20/07 A3022 RMK A01 T02020066  RH  041%=      5-min Rain = 0
KLA1 260422Z 08010G15KT 20/07 A3022 RMK A01 T02010066  RH  041%=      5-min Rain = 0
KLA1 260423Z 07007KT 20/07 A3022 RMK A01 T02010066  RH  041%=      5-min Rain = 0
KLA1 260424Z 07006KT 20/07 A3022 RMK A01 T02010066  RH  041%=      5-min Rain = 0
KLA1 260425Z 07009KT 20/07 A3022 RMK A01 T02000065  RH  042%=      5-min Rain = 0
KLA1 260426Z 06011KT 20/07 A3022 RMK A01 T02000065  RH  041%=      5-min Rain = 0
KLA1 260427Z 06010KT 20/07 A3022 RMK A01 T02000066  RH  042%=      5-min Rain = 0
KLA1 260428Z 07008KT 20/07 A3022 RMK A01 T02000066  RH  042%=      5-min Rain = 0
KLA1 260429Z 08009KT 20/07 A3022 RMK A01 T01990065  RH  042%=      5-min Rain = 0
KLA1 260430Z 06007G14KT 20/07 A3022 RMK A01 T01990065  RH  042%=      5-min Rain = 0
KLA1 260431Z 07010G16KT 20/07 A3022 RMK A01 T02000065  RH  042%=      5-min Rain = 0
KLA1 260432Z 06008G15KT 20/07 A3022 RMK A01 T01990065  RH  042%=      5-min Rain = 0
KLA1 260433Z 06009KT 20/07 A3022 RMK A01 T01990065  RH  042%=      5-min Rain = 0
KLA1 260434Z 07011KT 20/07 A3022 RMK A01 T02000065  RH  042%=      5-min Rain = 0
KLA1 260435Z 09012G17KT 20/07 A3023 RMK A01 T02000065  RH  042%=      5-min Rain = 0
KLA1 260436Z 07011G16KT 20/07 A3023 RMK A01 T01990065  RH  042%=      5-min Rain = 0
KLA1 260437Z 07012KT 20/07 A3023 RMK A01 T01990065  RH  042%=      5-min Rain = 0
KLA1 260438Z 07012KT 20/07 A3023 RMK A01 T01990065  RH  042%=      5-min Rain = 0
KLA1 260439Z 07009KT 20/07 A3023 RMK A01 T02000066  RH  042%=      5-min Rain = 0
KLA1 260440Z 07011G17KT 20/07 A3023 RMK A01 T01990066  RH  042%=      5-min Rain = 0
KLA1 260441Z 07010KT 20/07 A3023 RMK A01 T01980066  RH  042%=      5-min Rain = 0
KLA1 260442Z 07010G16KT 20/07 A3023 RMK A01 T01980066  RH  042%=      5-min Rain = 0
KLA1 260443Z 07016KT 20/07 A3023 RMK A01 T01990067  RH  042%=      5-min Rain = 0
KLA1 260444Z 07013KT 20/07 A3023 RMK A01 T01990067  RH  042%=      5-min Rain = 0
KLA1 260445Z 07009G14KT 20/07 A3023 RMK A01 T01980067  RH  042%=      5-min Rain = 0
KLA1 260446Z 07015KT 20/07 A3023 RMK A01 T01980067  RH  042%=      5-min Rain = 0
KLA1 260447Z 07012KT 20/07 A3023 RMK A01 T01980067  RH  042%=      5-min Rain = 0
KLA1 260448Z 08015KT 20/07 A3022 RMK A01 T01980067  RH  042%=      5-min Rain = 0
KLA1 260449Z 06011G16KT 20/07 A3023 RMK A01 T01980067  RH  043%=      5-min Rain = 0
KLA1 260450Z 07013KT 20/07 A3023 RMK A01 T01970067  RH  043%=      5-min Rain = 0
KLA1 260451Z 06011KT 20/07 A3023 RMK A01 T01970067  RH  043%=      5-min Rain = 0
KLA1 260452Z 08011G17KT 20/07 A3023 RMK A01 T01970067  RH  043%=      5-min Rain = 0
KLA1 260453Z 07010KT 20/07 A3023 RMK A01 T01970067  RH  043%=      5-min Rain = 0
KLA1 260454Z 06013KT 20/07 A3023 RMK A01 T01970067  RH  043%=      5-min Rain = 0
KLA1 260455Z 08012KT 20/07 A3023 RMK A01 T01970067  RH  043%=      5-min Rain = 0
KLA1 260456Z 07010KT 20/07 A3023 RMK A01 T01970067  RH  043%=      5-min Rain = 0
KLA1 260457Z 06015G21KT 20/07 A3023 RMK A01 T01960067  RH  043%=      5-min Rain = 0
KLA1 260458Z 07011G17KT 20/07 A3023 RMK A01 T01960067  RH  043%=      5-min Rain = 0
KLA1 260459Z 06009KT 20/07 A3023 RMK A01 T01960067  RH  043%=      5-min Rain = 0

Page generated in 0.1462 seconds.